HSIMC · Hong Kong Building Runtime Reference

Printable Building Runtime URLs · Batch 267

341,843 REGISTERED URLSBATCH 267 / 684500 PER PAGE

← PreviousRecords 133,001–133,500Next →
  1. Temporary Structure · 2663432284T20080807
    https://hsimc.tech/runtime-map/hk/buildings/csdi/2663432284t20080807/
    HRI-RT-HK-BUILDING-CSDI-2663432284T20080807-A0
  2. Tower · 2663433491T20161101
    https://hsimc.tech/runtime-map/hk/buildings/csdi/2663433491t20161101/
    HRI-RT-HK-BUILDING-CSDI-2663433491T20161101-A0
  3. Open-sided Structure · 2663433620T20191030
    https://hsimc.tech/runtime-map/hk/buildings/csdi/2663433620t20191030/
    HRI-RT-HK-BUILDING-CSDI-2663433620T20191030-A0
  4. Tower · 2663437464T20050430
    https://hsimc.tech/runtime-map/hk/buildings/csdi/2663437464t20050430/
    HRI-RT-HK-BUILDING-CSDI-2663437464T20050430-A0
  5. Tower · 2663440851T20050430
    https://hsimc.tech/runtime-map/hk/buildings/csdi/2663440851t20050430/
    HRI-RT-HK-BUILDING-CSDI-2663440851T20050430-A0
  6. Tower · 2663531849T20120924
    https://hsimc.tech/runtime-map/hk/buildings/csdi/2663531849t20120924/
    HRI-RT-HK-BUILDING-CSDI-2663531849T20120924-A0
  7. Tower · 2663531966T20100408
    https://hsimc.tech/runtime-map/hk/buildings/csdi/2663531966t20100408/
    HRI-RT-HK-BUILDING-CSDI-2663531966T20100408-A0
  8. Tower · 2663532002T20100526
    https://hsimc.tech/runtime-map/hk/buildings/csdi/2663532002t20100526/
    HRI-RT-HK-BUILDING-CSDI-2663532002T20100526-A0
  9. Tower · 2663532357T20050430
    https://hsimc.tech/runtime-map/hk/buildings/csdi/2663532357t20050430/
    HRI-RT-HK-BUILDING-CSDI-2663532357T20050430-A0
  10. Tower · 2663532388T20050430
    https://hsimc.tech/runtime-map/hk/buildings/csdi/2663532388t20050430/
    HRI-RT-HK-BUILDING-CSDI-2663532388T20050430-A0
  11. Open-sided Structure · 2663538881T20080626
    https://hsimc.tech/runtime-map/hk/buildings/csdi/2663538881t20080626/
    HRI-RT-HK-BUILDING-CSDI-2663538881T20080626-A0
  12. Temporary Structure · 2663539049T20080624
    https://hsimc.tech/runtime-map/hk/buildings/csdi/2663539049t20080624/
    HRI-RT-HK-BUILDING-CSDI-2663539049T20080624-A0
  13. Temporary Structure · 2663539270T20080626
    https://hsimc.tech/runtime-map/hk/buildings/csdi/2663539270t20080626/
    HRI-RT-HK-BUILDING-CSDI-2663539270T20080626-A0
  14. Tower · 2663540759T20121214
    https://hsimc.tech/runtime-map/hk/buildings/csdi/2663540759t20121214/
    HRI-RT-HK-BUILDING-CSDI-2663540759T20121214-A0
  15. Tower · 2663540792T20060612
    https://hsimc.tech/runtime-map/hk/buildings/csdi/2663540792t20060612/
    HRI-RT-HK-BUILDING-CSDI-2663540792T20060612-A0
  16. Tower · 2663540806T20050430
    https://hsimc.tech/runtime-map/hk/buildings/csdi/2663540806t20050430/
    HRI-RT-HK-BUILDING-CSDI-2663540806T20050430-A0
  17. Tower · 2663631804T20050430
    https://hsimc.tech/runtime-map/hk/buildings/csdi/2663631804t20050430/
    HRI-RT-HK-BUILDING-CSDI-2663631804T20050430-A0
  18. Tower · 2663632473T20091202
    https://hsimc.tech/runtime-map/hk/buildings/csdi/2663632473t20091202/
    HRI-RT-HK-BUILDING-CSDI-2663632473T20091202-A0
  19. Temporary Structure · 2663633014T20190916
    https://hsimc.tech/runtime-map/hk/buildings/csdi/2663633014t20190916/
    HRI-RT-HK-BUILDING-CSDI-2663633014T20190916-A0
  20. Temporary Structure · 2663633880T20210416
    https://hsimc.tech/runtime-map/hk/buildings/csdi/2663633880t20210416/
    HRI-RT-HK-BUILDING-CSDI-2663633880T20210416-A0
  21. Open-sided Structure · 2663634092T20250508
    https://hsimc.tech/runtime-map/hk/buildings/csdi/2663634092t20250508/
    HRI-RT-HK-BUILDING-CSDI-2663634092T20250508-A0
  22. Tower · 2663640836T20050430
    https://hsimc.tech/runtime-map/hk/buildings/csdi/2663640836t20050430/
    HRI-RT-HK-BUILDING-CSDI-2663640836T20050430-A0
  23. Tower · 2663731989T20100302
    https://hsimc.tech/runtime-map/hk/buildings/csdi/2663731989t20100302/
    HRI-RT-HK-BUILDING-CSDI-2663731989T20100302-A0
  24. Tower · 2663732063T20100526
    https://hsimc.tech/runtime-map/hk/buildings/csdi/2663732063t20100526/
    HRI-RT-HK-BUILDING-CSDI-2663732063T20100526-A0
  25. Tower · 2663732348T20091229
    https://hsimc.tech/runtime-map/hk/buildings/csdi/2663732348t20091229/
    HRI-RT-HK-BUILDING-CSDI-2663732348T20091229-A0
  26. Temporary Structure · 2663733887T20210416
    https://hsimc.tech/runtime-map/hk/buildings/csdi/2663733887t20210416/
    HRI-RT-HK-BUILDING-CSDI-2663733887T20210416-A0
  27. Temporary Structure · 2663734298T20080811
    https://hsimc.tech/runtime-map/hk/buildings/csdi/2663734298t20080811/
    HRI-RT-HK-BUILDING-CSDI-2663734298T20080811-A0
  28. Tower · 2663740773T20050430
    https://hsimc.tech/runtime-map/hk/buildings/csdi/2663740773t20050430/
    HRI-RT-HK-BUILDING-CSDI-2663740773T20050430-A0
  29. Tower · 2663740819T20050430
    https://hsimc.tech/runtime-map/hk/buildings/csdi/2663740819t20050430/
    HRI-RT-HK-BUILDING-CSDI-2663740819T20050430-A0
  30. Tower · 2663740849T20050430
    https://hsimc.tech/runtime-map/hk/buildings/csdi/2663740849t20050430/
    HRI-RT-HK-BUILDING-CSDI-2663740849T20050430-A0
  31. Tower · 2663831835T20160329
    https://hsimc.tech/runtime-map/hk/buildings/csdi/2663831835t20160329/
    HRI-RT-HK-BUILDING-CSDI-2663831835T20160329-A0
  32. Temporary Structure · 2663930835T20180523
    https://hsimc.tech/runtime-map/hk/buildings/csdi/2663930835t20180523/
    HRI-RT-HK-BUILDING-CSDI-2663930835T20180523-A0
  33. Temporary Structure · 2663930986T20180523
    https://hsimc.tech/runtime-map/hk/buildings/csdi/2663930986t20180523/
    HRI-RT-HK-BUILDING-CSDI-2663930986T20180523-A0
  34. Tower · 2663932390T20050430
    https://hsimc.tech/runtime-map/hk/buildings/csdi/2663932390t20050430/
    HRI-RT-HK-BUILDING-CSDI-2663932390T20050430-A0
  35. Tower · 2663932394T20050430
    https://hsimc.tech/runtime-map/hk/buildings/csdi/2663932394t20050430/
    HRI-RT-HK-BUILDING-CSDI-2663932394T20050430-A0
  36. Temporary Structure · 2663938916T20080626
    https://hsimc.tech/runtime-map/hk/buildings/csdi/2663938916t20080626/
    HRI-RT-HK-BUILDING-CSDI-2663938916T20080626-A0
  37. Tower · 2663940804T20050430
    https://hsimc.tech/runtime-map/hk/buildings/csdi/2663940804t20050430/
    HRI-RT-HK-BUILDING-CSDI-2663940804T20050430-A0
  38. Temporary Structure · 2664031194T20221117
    https://hsimc.tech/runtime-map/hk/buildings/csdi/2664031194t20221117/
    HRI-RT-HK-BUILDING-CSDI-2664031194T20221117-A0
  39. Tower · 2664031612T20050430
    https://hsimc.tech/runtime-map/hk/buildings/csdi/2664031612t20050430/
    HRI-RT-HK-BUILDING-CSDI-2664031612T20050430-A0
  40. Tower · 2664032458T20090831
    https://hsimc.tech/runtime-map/hk/buildings/csdi/2664032458t20090831/
    HRI-RT-HK-BUILDING-CSDI-2664032458T20090831-A0
  41. Tower · 2664032490T20061116
    https://hsimc.tech/runtime-map/hk/buildings/csdi/2664032490t20061116/
    HRI-RT-HK-BUILDING-CSDI-2664032490T20061116-A0
  42. Tower · 2664032536T20050430
    https://hsimc.tech/runtime-map/hk/buildings/csdi/2664032536t20050430/
    HRI-RT-HK-BUILDING-CSDI-2664032536T20050430-A0
  43. BUN HING YUEN / 賓興園
    https://hsimc.tech/runtime-map/hk/buildings/csdi/2664033620t20050430/
    HRI-RT-HK-BUILDING-CSDI-2664033620T20050430-A0
  44. Block 7
    https://hsimc.tech/runtime-map/hk/buildings/csdi/2664033802t20240822/
    HRI-RT-HK-BUILDING-CSDI-2664033802T20240822-A0
  45. Temporary Structure · 2664039287T20251117
    https://hsimc.tech/runtime-map/hk/buildings/csdi/2664039287t20251117/
    HRI-RT-HK-BUILDING-CSDI-2664039287T20251117-A0
  46. Tower · 2664040833T20050430
    https://hsimc.tech/runtime-map/hk/buildings/csdi/2664040833t20050430/
    HRI-RT-HK-BUILDING-CSDI-2664040833T20050430-A0
  47. Tower · 2664132402T20050430
    https://hsimc.tech/runtime-map/hk/buildings/csdi/2664132402t20050430/
    HRI-RT-HK-BUILDING-CSDI-2664132402T20050430-A0
  48. Sludge Dewatering Building / 污泥脫水樓
    https://hsimc.tech/runtime-map/hk/buildings/csdi/2664137409t20050430/
    HRI-RT-HK-BUILDING-CSDI-2664137409T20050430-A0
  49. Temporary Structure · 2664138953T20201113
    https://hsimc.tech/runtime-map/hk/buildings/csdi/2664138953t20201113/
    HRI-RT-HK-BUILDING-CSDI-2664138953T20201113-A0
  50. Tower · 2664140812T20050430
    https://hsimc.tech/runtime-map/hk/buildings/csdi/2664140812t20050430/
    HRI-RT-HK-BUILDING-CSDI-2664140812T20050430-A0
  51. Tower · 2664224106T20050430
    https://hsimc.tech/runtime-map/hk/buildings/csdi/2664224106t20050430/
    HRI-RT-HK-BUILDING-CSDI-2664224106T20050430-A0
  52. Tower · 2664231841T20181213
    https://hsimc.tech/runtime-map/hk/buildings/csdi/2664231841t20181213/
    HRI-RT-HK-BUILDING-CSDI-2664231841T20181213-A0
  53. Tower · 2664231981T20120614
    https://hsimc.tech/runtime-map/hk/buildings/csdi/2664231981t20120614/
    HRI-RT-HK-BUILDING-CSDI-2664231981T20120614-A0
  54. Tower · 2664232053T20041001
    https://hsimc.tech/runtime-map/hk/buildings/csdi/2664232053t20041001/
    HRI-RT-HK-BUILDING-CSDI-2664232053T20041001-A0
  55. Open-sided Structure · 2664232528T20080724
    https://hsimc.tech/runtime-map/hk/buildings/csdi/2664232528t20080724/
    HRI-RT-HK-BUILDING-CSDI-2664232528T20080724-A0
  56. Tower · 2664232549T20100512
    https://hsimc.tech/runtime-map/hk/buildings/csdi/2664232549t20100512/
    HRI-RT-HK-BUILDING-CSDI-2664232549T20100512-A0
  57. Tower · 2664240802T20050430
    https://hsimc.tech/runtime-map/hk/buildings/csdi/2664240802t20050430/
    HRI-RT-HK-BUILDING-CSDI-2664240802T20050430-A0
  58. Tower · 2664240830T20050430
    https://hsimc.tech/runtime-map/hk/buildings/csdi/2664240830t20050430/
    HRI-RT-HK-BUILDING-CSDI-2664240830T20050430-A0
  59. Tower · 2664240845T20050430
    https://hsimc.tech/runtime-map/hk/buildings/csdi/2664240845t20050430/
    HRI-RT-HK-BUILDING-CSDI-2664240845T20050430-A0
  60. Tower · 2664331789T20120215
    https://hsimc.tech/runtime-map/hk/buildings/csdi/2664331789t20120215/
    HRI-RT-HK-BUILDING-CSDI-2664331789T20120215-A0
  61. Temporary Structure · 2664339185T20080626
    https://hsimc.tech/runtime-map/hk/buildings/csdi/2664339185t20080626/
    HRI-RT-HK-BUILDING-CSDI-2664339185T20080626-A0
  62. Temporary Structure · 2664339545T20251113
    https://hsimc.tech/runtime-map/hk/buildings/csdi/2664339545t20251113/
    HRI-RT-HK-BUILDING-CSDI-2664339545T20251113-A0
  63. Tower · 2664340729T20070831
    https://hsimc.tech/runtime-map/hk/buildings/csdi/2664340729t20070831/
    HRI-RT-HK-BUILDING-CSDI-2664340729T20070831-A0
  64. Tower · 2664340770T20050430
    https://hsimc.tech/runtime-map/hk/buildings/csdi/2664340770t20050430/
    HRI-RT-HK-BUILDING-CSDI-2664340770T20050430-A0
  65. Temporary Structure · 2664340785T20110519
    https://hsimc.tech/runtime-map/hk/buildings/csdi/2664340785t20110519/
    HRI-RT-HK-BUILDING-CSDI-2664340785T20110519-A0
  66. Open-sided Structure · 2664432503T20190225
    https://hsimc.tech/runtime-map/hk/buildings/csdi/2664432503t20190225/
    HRI-RT-HK-BUILDING-CSDI-2664432503T20190225-A0
  67. Open-sided Structure · 2664439139T20080624
    https://hsimc.tech/runtime-map/hk/buildings/csdi/2664439139t20080624/
    HRI-RT-HK-BUILDING-CSDI-2664439139T20080624-A0
  68. Temporary Structure · 2664439279T20251117
    https://hsimc.tech/runtime-map/hk/buildings/csdi/2664439279t20251117/
    HRI-RT-HK-BUILDING-CSDI-2664439279T20251117-A0
  69. Tower · 2664440810T20050430
    https://hsimc.tech/runtime-map/hk/buildings/csdi/2664440810t20050430/
    HRI-RT-HK-BUILDING-CSDI-2664440810T20050430-A0
  70. Tower · 2664440857T20050430
    https://hsimc.tech/runtime-map/hk/buildings/csdi/2664440857t20050430/
    HRI-RT-HK-BUILDING-CSDI-2664440857T20050430-A0
  71. Temporary Structure · 2664531166T20221118
    https://hsimc.tech/runtime-map/hk/buildings/csdi/2664531166t20221118/
    HRI-RT-HK-BUILDING-CSDI-2664531166T20221118-A0
  72. Temporary Structure · 2664531892T20240822
    https://hsimc.tech/runtime-map/hk/buildings/csdi/2664531892t20240822/
    HRI-RT-HK-BUILDING-CSDI-2664531892T20240822-A0
  73. Tower · 2664532430T20070903
    https://hsimc.tech/runtime-map/hk/buildings/csdi/2664532430t20070903/
    HRI-RT-HK-BUILDING-CSDI-2664532430T20070903-A0
  74. Temporary Structure · 2664533001T20080724
    https://hsimc.tech/runtime-map/hk/buildings/csdi/2664533001t20080724/
    HRI-RT-HK-BUILDING-CSDI-2664533001T20080724-A0
  75. Temporary Structure · 2664538850T20080626
    https://hsimc.tech/runtime-map/hk/buildings/csdi/2664538850t20080626/
    HRI-RT-HK-BUILDING-CSDI-2664538850T20080626-A0
  76. Open-sided Structure · 2664539065T20251117
    https://hsimc.tech/runtime-map/hk/buildings/csdi/2664539065t20251117/
    HRI-RT-HK-BUILDING-CSDI-2664539065T20251117-A0
  77. Temporary Structure · 2664539174T20080626
    https://hsimc.tech/runtime-map/hk/buildings/csdi/2664539174t20080626/
    HRI-RT-HK-BUILDING-CSDI-2664539174T20080626-A0
  78. Temporary Structure · 2664539251T20080626
    https://hsimc.tech/runtime-map/hk/buildings/csdi/2664539251t20080626/
    HRI-RT-HK-BUILDING-CSDI-2664539251T20080626-A0
  79. Tower · 2664540828T20050430
    https://hsimc.tech/runtime-map/hk/buildings/csdi/2664540828t20050430/
    HRI-RT-HK-BUILDING-CSDI-2664540828T20050430-A0
  80. Tower · 2664631828T20050430
    https://hsimc.tech/runtime-map/hk/buildings/csdi/2664631828t20050430/
    HRI-RT-HK-BUILDING-CSDI-2664631828T20050430-A0
  81. Tower · 2664631958T20100512
    https://hsimc.tech/runtime-map/hk/buildings/csdi/2664631958t20100512/
    HRI-RT-HK-BUILDING-CSDI-2664631958T20100512-A0
  82. Tower · 2664632064T20100526
    https://hsimc.tech/runtime-map/hk/buildings/csdi/2664632064t20100526/
    HRI-RT-HK-BUILDING-CSDI-2664632064T20100526-A0
  83. Open-sided Structure · 2664632071T20230605
    https://hsimc.tech/runtime-map/hk/buildings/csdi/2664632071t20230605/
    HRI-RT-HK-BUILDING-CSDI-2664632071T20230605-A0
  84. Tower · 2664632204T20110401
    https://hsimc.tech/runtime-map/hk/buildings/csdi/2664632204t20110401/
    HRI-RT-HK-BUILDING-CSDI-2664632204T20110401-A0
  85. Tower · 2664640801T20050430
    https://hsimc.tech/runtime-map/hk/buildings/csdi/2664640801t20050430/
    HRI-RT-HK-BUILDING-CSDI-2664640801T20050430-A0
  86. Tower · 2664640855T20050430
    https://hsimc.tech/runtime-map/hk/buildings/csdi/2664640855t20050430/
    HRI-RT-HK-BUILDING-CSDI-2664640855T20050430-A0
  87. Tower · 2664724070T20050430
    https://hsimc.tech/runtime-map/hk/buildings/csdi/2664724070t20050430/
    HRI-RT-HK-BUILDING-CSDI-2664724070T20050430-A0
  88. Tower · 2664732404T20050430
    https://hsimc.tech/runtime-map/hk/buildings/csdi/2664732404t20050430/
    HRI-RT-HK-BUILDING-CSDI-2664732404T20050430-A0
  89. Open-sided Structure · 2664732463T20190125
    https://hsimc.tech/runtime-map/hk/buildings/csdi/2664732463t20190125/
    HRI-RT-HK-BUILDING-CSDI-2664732463T20190125-A0
  90. Tower · 2664732470T20080606
    https://hsimc.tech/runtime-map/hk/buildings/csdi/2664732470t20080606/
    HRI-RT-HK-BUILDING-CSDI-2664732470T20080606-A0
  91. Open-sided Structure · 2664831453T20071030
    https://hsimc.tech/runtime-map/hk/buildings/csdi/2664831453t20071030/
    HRI-RT-HK-BUILDING-CSDI-2664831453T20071030-A0
  92. Tower · 2664831618T20050430
    https://hsimc.tech/runtime-map/hk/buildings/csdi/2664831618t20050430/
    HRI-RT-HK-BUILDING-CSDI-2664831618T20050430-A0
  93. Tower · 2664840810T20050430
    https://hsimc.tech/runtime-map/hk/buildings/csdi/2664840810t20050430/
    HRI-RT-HK-BUILDING-CSDI-2664840810T20050430-A0
  94. Tower · 2664840836T20050430
    https://hsimc.tech/runtime-map/hk/buildings/csdi/2664840836t20050430/
    HRI-RT-HK-BUILDING-CSDI-2664840836T20050430-A0
  95. Tower · 2664931798T20120216
    https://hsimc.tech/runtime-map/hk/buildings/csdi/2664931798t20120216/
    HRI-RT-HK-BUILDING-CSDI-2664931798T20120216-A0
  96. Open-sided Structure · 2664932314T20190115
    https://hsimc.tech/runtime-map/hk/buildings/csdi/2664932314t20190115/
    HRI-RT-HK-BUILDING-CSDI-2664932314T20190115-A0
  97. Tower · 2664932321T20050430
    https://hsimc.tech/runtime-map/hk/buildings/csdi/2664932321t20050430/
    HRI-RT-HK-BUILDING-CSDI-2664932321T20050430-A0
  98. Temporary Structure · 2664932993T20080724
    https://hsimc.tech/runtime-map/hk/buildings/csdi/2664932993t20080724/
    HRI-RT-HK-BUILDING-CSDI-2664932993T20080724-A0
  99. Open-sided Structure · 2664934079T20130925
    https://hsimc.tech/runtime-map/hk/buildings/csdi/2664934079t20130925/
    HRI-RT-HK-BUILDING-CSDI-2664934079T20130925-A0
  100. Temporary Structure · 2664934153T20080815
    https://hsimc.tech/runtime-map/hk/buildings/csdi/2664934153t20080815/
    HRI-RT-HK-BUILDING-CSDI-2664934153T20080815-A0
  101. Temporary Structure · 2664939088T20251117
    https://hsimc.tech/runtime-map/hk/buildings/csdi/2664939088t20251117/
    HRI-RT-HK-BUILDING-CSDI-2664939088T20251117-A0
  102. Temporary Structure · 2664939164T20080624
    https://hsimc.tech/runtime-map/hk/buildings/csdi/2664939164t20080624/
    HRI-RT-HK-BUILDING-CSDI-2664939164T20080624-A0
  103. Temporary Structure · 2664939320T20180712
    https://hsimc.tech/runtime-map/hk/buildings/csdi/2664939320t20180712/
    HRI-RT-HK-BUILDING-CSDI-2664939320T20180712-A0
  104. Tower · 2664940784T20050430
    https://hsimc.tech/runtime-map/hk/buildings/csdi/2664940784t20050430/
    HRI-RT-HK-BUILDING-CSDI-2664940784T20050430-A0
  105. Temporary Structure · 2665031172T20221118
    https://hsimc.tech/runtime-map/hk/buildings/csdi/2665031172t20221118/
    HRI-RT-HK-BUILDING-CSDI-2665031172T20221118-A0
  106. Tower · 2665031449T20050430
    https://hsimc.tech/runtime-map/hk/buildings/csdi/2665031449t20050430/
    HRI-RT-HK-BUILDING-CSDI-2665031449T20050430-A0
  107. Tower · 2665031847T20050430
    https://hsimc.tech/runtime-map/hk/buildings/csdi/2665031847t20050430/
    HRI-RT-HK-BUILDING-CSDI-2665031847T20050430-A0
  108. Tower · 2665032332T20150623
    https://hsimc.tech/runtime-map/hk/buildings/csdi/2665032332t20150623/
    HRI-RT-HK-BUILDING-CSDI-2665032332T20150623-A0
  109. Tower · 2665032437T20121008
    https://hsimc.tech/runtime-map/hk/buildings/csdi/2665032437t20121008/
    HRI-RT-HK-BUILDING-CSDI-2665032437T20121008-A0
  110. Shek Kong Barracks Block 80 / 石崗軍營80座
    https://hsimc.tech/runtime-map/hk/buildings/csdi/2665033309t20050430/
    HRI-RT-HK-BUILDING-CSDI-2665033309T20050430-A0
  111. Block 8
    https://hsimc.tech/runtime-map/hk/buildings/csdi/2665033787t20240822/
    HRI-RT-HK-BUILDING-CSDI-2665033787T20240822-A0
  112. Tower · 2665034148T20050430
    https://hsimc.tech/runtime-map/hk/buildings/csdi/2665034148t20050430/
    HRI-RT-HK-BUILDING-CSDI-2665034148T20050430-A0
  113. Temporary Structure · 2665040764T20080711
    https://hsimc.tech/runtime-map/hk/buildings/csdi/2665040764t20080711/
    HRI-RT-HK-BUILDING-CSDI-2665040764T20080711-A0
  114. Tower · 2665040796T20050430
    https://hsimc.tech/runtime-map/hk/buildings/csdi/2665040796t20050430/
    HRI-RT-HK-BUILDING-CSDI-2665040796T20050430-A0
  115. Tower · 2665040855T20050430
    https://hsimc.tech/runtime-map/hk/buildings/csdi/2665040855t20050430/
    HRI-RT-HK-BUILDING-CSDI-2665040855T20050430-A0
  116. Open-sided Structure · 2665124099T20070920
    https://hsimc.tech/runtime-map/hk/buildings/csdi/2665124099t20070920/
    HRI-RT-HK-BUILDING-CSDI-2665124099T20070920-A0
  117. Temporary Structure · 2665132358T20080807
    https://hsimc.tech/runtime-map/hk/buildings/csdi/2665132358t20080807/
    HRI-RT-HK-BUILDING-CSDI-2665132358T20080807-A0
  118. Shek Kong Barracks Block 37 / 石崗軍營37座
    https://hsimc.tech/runtime-map/hk/buildings/csdi/2665133003t20050430/
    HRI-RT-HK-BUILDING-CSDI-2665133003T20050430-A0
  119. Temporary Structure · 2665138911T20080626
    https://hsimc.tech/runtime-map/hk/buildings/csdi/2665138911t20080626/
    HRI-RT-HK-BUILDING-CSDI-2665138911T20080626-A0
  120. Temporary Structure · 2665138950T20080626
    https://hsimc.tech/runtime-map/hk/buildings/csdi/2665138950t20080626/
    HRI-RT-HK-BUILDING-CSDI-2665138950T20080626-A0
  121. Temporary Structure · 2665139006T20250804
    https://hsimc.tech/runtime-map/hk/buildings/csdi/2665139006t20250804/
    HRI-RT-HK-BUILDING-CSDI-2665139006T20250804-A0
  122. Tower · 2665140782T20050430
    https://hsimc.tech/runtime-map/hk/buildings/csdi/2665140782t20050430/
    HRI-RT-HK-BUILDING-CSDI-2665140782T20050430-A0
  123. Tower · 2665140807T20050430
    https://hsimc.tech/runtime-map/hk/buildings/csdi/2665140807t20050430/
    HRI-RT-HK-BUILDING-CSDI-2665140807T20050430-A0
  124. Tower · 2665140823T20221229
    https://hsimc.tech/runtime-map/hk/buildings/csdi/2665140823t20221229/
    HRI-RT-HK-BUILDING-CSDI-2665140823T20221229-A0
  125. Tower · 2665140833T20050430
    https://hsimc.tech/runtime-map/hk/buildings/csdi/2665140833t20050430/
    HRI-RT-HK-BUILDING-CSDI-2665140833T20050430-A0
  126. Tower · 2665140863T20050430
    https://hsimc.tech/runtime-map/hk/buildings/csdi/2665140863t20050430/
    HRI-RT-HK-BUILDING-CSDI-2665140863T20050430-A0
  127. Open-sided Structure · 2665224085T20070920
    https://hsimc.tech/runtime-map/hk/buildings/csdi/2665224085t20070920/
    HRI-RT-HK-BUILDING-CSDI-2665224085T20070920-A0
  128. Choi Yi Wah Ancestral Hall / 彝華蔡公祠
    https://hsimc.tech/runtime-map/hk/buildings/csdi/2665232413t20071001/
    HRI-RT-HK-BUILDING-CSDI-2665232413T20071001-A0
  129. Tower · 2665232489T20120214
    https://hsimc.tech/runtime-map/hk/buildings/csdi/2665232489t20120214/
    HRI-RT-HK-BUILDING-CSDI-2665232489T20120214-A0
  130. Tower · 2665233764T20240812
    https://hsimc.tech/runtime-map/hk/buildings/csdi/2665233764t20240812/
    HRI-RT-HK-BUILDING-CSDI-2665233764T20240812-A0
  131. Podium · 2665237467P20111014
    https://hsimc.tech/runtime-map/hk/buildings/csdi/2665237467p20111014/
    HRI-RT-HK-BUILDING-CSDI-2665237467P20111014-A0
  132. Open-sided Structure · 2665239275T20230503
    https://hsimc.tech/runtime-map/hk/buildings/csdi/2665239275t20230503/
    HRI-RT-HK-BUILDING-CSDI-2665239275T20230503-A0
  133. Tower · 2665240759T20050430
    https://hsimc.tech/runtime-map/hk/buildings/csdi/2665240759t20050430/
    HRI-RT-HK-BUILDING-CSDI-2665240759T20050430-A0
  134. Tower · 2665240840T20050430
    https://hsimc.tech/runtime-map/hk/buildings/csdi/2665240840t20050430/
    HRI-RT-HK-BUILDING-CSDI-2665240840T20050430-A0
  135. Tower · 2665331823T20050430
    https://hsimc.tech/runtime-map/hk/buildings/csdi/2665331823t20050430/
    HRI-RT-HK-BUILDING-CSDI-2665331823T20050430-A0
  136. Tower · 2665331850T20050430
    https://hsimc.tech/runtime-map/hk/buildings/csdi/2665331850t20050430/
    HRI-RT-HK-BUILDING-CSDI-2665331850T20050430-A0
  137. Tower · 2665332363T20050430
    https://hsimc.tech/runtime-map/hk/buildings/csdi/2665332363t20050430/
    HRI-RT-HK-BUILDING-CSDI-2665332363T20050430-A0
  138. Tower · 2665332499T20121029
    https://hsimc.tech/runtime-map/hk/buildings/csdi/2665332499t20121029/
    HRI-RT-HK-BUILDING-CSDI-2665332499T20121029-A0
  139. Tower · 2665340791T20050430
    https://hsimc.tech/runtime-map/hk/buildings/csdi/2665340791t20050430/
    HRI-RT-HK-BUILDING-CSDI-2665340791T20050430-A0
  140. Tower · 2665340832T20050430
    https://hsimc.tech/runtime-map/hk/buildings/csdi/2665340832t20050430/
    HRI-RT-HK-BUILDING-CSDI-2665340832T20050430-A0
  141. VILLA COTE D'AZUR / 汀九南岸寄廬
    https://hsimc.tech/runtime-map/hk/buildings/csdi/2665425477t20050430/
    HRI-RT-HK-BUILDING-CSDI-2665425477T20050430-A0
  142. Tower · 2665431959T20100512
    https://hsimc.tech/runtime-map/hk/buildings/csdi/2665431959t20100512/
    HRI-RT-HK-BUILDING-CSDI-2665431959T20100512-A0
  143. Tower · 2665433399T20050430
    https://hsimc.tech/runtime-map/hk/buildings/csdi/2665433399t20050430/
    HRI-RT-HK-BUILDING-CSDI-2665433399T20050430-A0
  144. Temporary Structure · 2665437308T20080703
    https://hsimc.tech/runtime-map/hk/buildings/csdi/2665437308t20080703/
    HRI-RT-HK-BUILDING-CSDI-2665437308T20080703-A0
  145. Temporary Structure · 2665438858T20080626
    https://hsimc.tech/runtime-map/hk/buildings/csdi/2665438858t20080626/
    HRI-RT-HK-BUILDING-CSDI-2665438858T20080626-A0
  146. Temporary Structure · 2665439077T20180711
    https://hsimc.tech/runtime-map/hk/buildings/csdi/2665439077t20180711/
    HRI-RT-HK-BUILDING-CSDI-2665439077T20180711-A0
  147. Tower · 2665440676T20230531
    https://hsimc.tech/runtime-map/hk/buildings/csdi/2665440676t20230531/
    HRI-RT-HK-BUILDING-CSDI-2665440676T20230531-A0
  148. Tower · 2665440779T20050430
    https://hsimc.tech/runtime-map/hk/buildings/csdi/2665440779t20050430/
    HRI-RT-HK-BUILDING-CSDI-2665440779T20050430-A0
  149. Tower · 2665531624T20050430
    https://hsimc.tech/runtime-map/hk/buildings/csdi/2665531624t20050430/
    HRI-RT-HK-BUILDING-CSDI-2665531624T20050430-A0
  150. Tower · 2665531806T20120216
    https://hsimc.tech/runtime-map/hk/buildings/csdi/2665531806t20120216/
    HRI-RT-HK-BUILDING-CSDI-2665531806T20120216-A0
  151. Tower · 2665532041T20100120
    https://hsimc.tech/runtime-map/hk/buildings/csdi/2665532041t20100120/
    HRI-RT-HK-BUILDING-CSDI-2665532041T20100120-A0
  152. Tower · 2665532446T20121008
    https://hsimc.tech/runtime-map/hk/buildings/csdi/2665532446t20121008/
    HRI-RT-HK-BUILDING-CSDI-2665532446T20121008-A0
  153. Tower · 2665532509T20111114
    https://hsimc.tech/runtime-map/hk/buildings/csdi/2665532509t20111114/
    HRI-RT-HK-BUILDING-CSDI-2665532509T20111114-A0
  154. Tower · 2665533505T20161101
    https://hsimc.tech/runtime-map/hk/buildings/csdi/2665533505t20161101/
    HRI-RT-HK-BUILDING-CSDI-2665533505T20161101-A0
  155. Temporary Structure · 2665539264T20080626
    https://hsimc.tech/runtime-map/hk/buildings/csdi/2665539264t20080626/
    HRI-RT-HK-BUILDING-CSDI-2665539264T20080626-A0
  156. Tower · 2665540720T20210518
    https://hsimc.tech/runtime-map/hk/buildings/csdi/2665540720t20210518/
    HRI-RT-HK-BUILDING-CSDI-2665540720T20210518-A0
  157. Tower · 2665540830T20050430
    https://hsimc.tech/runtime-map/hk/buildings/csdi/2665540830t20050430/
    HRI-RT-HK-BUILDING-CSDI-2665540830T20050430-A0
  158. Tower · 2665540837T20050430
    https://hsimc.tech/runtime-map/hk/buildings/csdi/2665540837t20050430/
    HRI-RT-HK-BUILDING-CSDI-2665540837T20050430-A0
  159. Tower · 2665540848T20251006
    https://hsimc.tech/runtime-map/hk/buildings/csdi/2665540848t20251006/
    HRI-RT-HK-BUILDING-CSDI-2665540848T20251006-A0
  160. Tower · 2665540860T20050430
    https://hsimc.tech/runtime-map/hk/buildings/csdi/2665540860t20050430/
    HRI-RT-HK-BUILDING-CSDI-2665540860T20050430-A0
  161. Tower · 2665631604T20050430
    https://hsimc.tech/runtime-map/hk/buildings/csdi/2665631604t20050430/
    HRI-RT-HK-BUILDING-CSDI-2665631604T20050430-A0
  162. Tower · 2665632026T20100120
    https://hsimc.tech/runtime-map/hk/buildings/csdi/2665632026t20100120/
    HRI-RT-HK-BUILDING-CSDI-2665632026T20100120-A0
  163. Open-sided Structure · 2665639256T20250808
    https://hsimc.tech/runtime-map/hk/buildings/csdi/2665639256t20250808/
    HRI-RT-HK-BUILDING-CSDI-2665639256T20250808-A0
  164. Tower · 2665640818T20050430
    https://hsimc.tech/runtime-map/hk/buildings/csdi/2665640818t20050430/
    HRI-RT-HK-BUILDING-CSDI-2665640818T20050430-A0
  165. Tower · 2665732375T20050430
    https://hsimc.tech/runtime-map/hk/buildings/csdi/2665732375t20050430/
    HRI-RT-HK-BUILDING-CSDI-2665732375T20050430-A0
  166. Tower · 2665734145T20050430
    https://hsimc.tech/runtime-map/hk/buildings/csdi/2665734145t20050430/
    HRI-RT-HK-BUILDING-CSDI-2665734145T20050430-A0
  167. Temporary Structure · 2665734147T20191021
    https://hsimc.tech/runtime-map/hk/buildings/csdi/2665734147t20191021/
    HRI-RT-HK-BUILDING-CSDI-2665734147T20191021-A0
  168. Temporary Structure · 2665738841T20080626
    https://hsimc.tech/runtime-map/hk/buildings/csdi/2665738841t20080626/
    HRI-RT-HK-BUILDING-CSDI-2665738841T20080626-A0
  169. Open-sided Structure · 2665739060T20080626
    https://hsimc.tech/runtime-map/hk/buildings/csdi/2665739060t20080626/
    HRI-RT-HK-BUILDING-CSDI-2665739060T20080626-A0
  170. Temporary Structure · 2665739297T20251117
    https://hsimc.tech/runtime-map/hk/buildings/csdi/2665739297t20251117/
    HRI-RT-HK-BUILDING-CSDI-2665739297T20251117-A0
  171. Temporary Structure · 2665740070T20070212
    https://hsimc.tech/runtime-map/hk/buildings/csdi/2665740070t20070212/
    HRI-RT-HK-BUILDING-CSDI-2665740070T20070212-A0
  172. Temporary Structure · 2665740579T20181010
    https://hsimc.tech/runtime-map/hk/buildings/csdi/2665740579t20181010/
    HRI-RT-HK-BUILDING-CSDI-2665740579T20181010-A0
  173. Tower · 2665740777T20050430
    https://hsimc.tech/runtime-map/hk/buildings/csdi/2665740777t20050430/
    HRI-RT-HK-BUILDING-CSDI-2665740777T20050430-A0
  174. Tower · 2665740803T20050430
    https://hsimc.tech/runtime-map/hk/buildings/csdi/2665740803t20050430/
    HRI-RT-HK-BUILDING-CSDI-2665740803T20050430-A0
  175. Tower · 2665831885T20050430
    https://hsimc.tech/runtime-map/hk/buildings/csdi/2665831885t20050430/
    HRI-RT-HK-BUILDING-CSDI-2665831885T20050430-A0
  176. Tower · 2665832057T20091216
    https://hsimc.tech/runtime-map/hk/buildings/csdi/2665832057t20091216/
    HRI-RT-HK-BUILDING-CSDI-2665832057T20091216-A0
  177. Temporary Structure · 2665838930T20080626
    https://hsimc.tech/runtime-map/hk/buildings/csdi/2665838930t20080626/
    HRI-RT-HK-BUILDING-CSDI-2665838930T20080626-A0
  178. Temporary Structure · 2665839251T20080626
    https://hsimc.tech/runtime-map/hk/buildings/csdi/2665839251t20080626/
    HRI-RT-HK-BUILDING-CSDI-2665839251T20080626-A0
  179. Temporary Structure · 2665839568T20180808
    https://hsimc.tech/runtime-map/hk/buildings/csdi/2665839568t20180808/
    HRI-RT-HK-BUILDING-CSDI-2665839568T20180808-A0
  180. Tower · 2665840816T20050430
    https://hsimc.tech/runtime-map/hk/buildings/csdi/2665840816t20050430/
    HRI-RT-HK-BUILDING-CSDI-2665840816T20050430-A0
  181. Open-sided Structure · 2665931451T20080814
    https://hsimc.tech/runtime-map/hk/buildings/csdi/2665931451t20080814/
    HRI-RT-HK-BUILDING-CSDI-2665931451T20080814-A0
  182. Tower · 2665932379T20050430
    https://hsimc.tech/runtime-map/hk/buildings/csdi/2665932379t20050430/
    HRI-RT-HK-BUILDING-CSDI-2665932379T20050430-A0
  183. Open-sided Structure · 2665938884T20080626
    https://hsimc.tech/runtime-map/hk/buildings/csdi/2665938884t20080626/
    HRI-RT-HK-BUILDING-CSDI-2665938884T20080626-A0
  184. Tower · 2665940789T20050430
    https://hsimc.tech/runtime-map/hk/buildings/csdi/2665940789t20050430/
    HRI-RT-HK-BUILDING-CSDI-2665940789T20050430-A0
  185. Temporary Structure · 2665942739T20221027
    https://hsimc.tech/runtime-map/hk/buildings/csdi/2665942739t20221027/
    HRI-RT-HK-BUILDING-CSDI-2665942739T20221027-A0
  186. Tower · 2666031445T20050430
    https://hsimc.tech/runtime-map/hk/buildings/csdi/2666031445t20050430/
    HRI-RT-HK-BUILDING-CSDI-2666031445T20050430-A0
  187. Tower · 2666032071T20091216
    https://hsimc.tech/runtime-map/hk/buildings/csdi/2666032071t20091216/
    HRI-RT-HK-BUILDING-CSDI-2666032071T20091216-A0
  188. Tower · 2666032342T20110805
    https://hsimc.tech/runtime-map/hk/buildings/csdi/2666032342t20110805/
    HRI-RT-HK-BUILDING-CSDI-2666032342T20110805-A0
  189. Tower · 2666032382T20050430
    https://hsimc.tech/runtime-map/hk/buildings/csdi/2666032382t20050430/
    HRI-RT-HK-BUILDING-CSDI-2666032382T20050430-A0
  190. Open-sided Structure · 2666033975T20130919
    https://hsimc.tech/runtime-map/hk/buildings/csdi/2666033975t20130919/
    HRI-RT-HK-BUILDING-CSDI-2666033975T20130919-A0
  191. Temporary Structure · 2666039232T20251117
    https://hsimc.tech/runtime-map/hk/buildings/csdi/2666039232t20251117/
    HRI-RT-HK-BUILDING-CSDI-2666039232T20251117-A0
  192. Temporary Structure · 2666040581T20181010
    https://hsimc.tech/runtime-map/hk/buildings/csdi/2666040581t20181010/
    HRI-RT-HK-BUILDING-CSDI-2666040581T20181010-A0
  193. Tower · 2666040755T20050430
    https://hsimc.tech/runtime-map/hk/buildings/csdi/2666040755t20050430/
    HRI-RT-HK-BUILDING-CSDI-2666040755T20050430-A0
  194. Tower · 2666040775T20050430
    https://hsimc.tech/runtime-map/hk/buildings/csdi/2666040775t20050430/
    HRI-RT-HK-BUILDING-CSDI-2666040775T20050430-A0
  195. Tower · 2666040828T20160418
    https://hsimc.tech/runtime-map/hk/buildings/csdi/2666040828t20160418/
    HRI-RT-HK-BUILDING-CSDI-2666040828T20160418-A0
  196. Tower · 2666040833T20050430
    https://hsimc.tech/runtime-map/hk/buildings/csdi/2666040833t20050430/
    HRI-RT-HK-BUILDING-CSDI-2666040833T20050430-A0
  197. Tower · 2666132202T20110401
    https://hsimc.tech/runtime-map/hk/buildings/csdi/2666132202t20110401/
    HRI-RT-HK-BUILDING-CSDI-2666132202T20110401-A0
  198. Open-sided Structure · 2666132365T20181206
    https://hsimc.tech/runtime-map/hk/buildings/csdi/2666132365t20181206/
    HRI-RT-HK-BUILDING-CSDI-2666132365T20181206-A0
  199. Tower · 2666132430T20050430
    https://hsimc.tech/runtime-map/hk/buildings/csdi/2666132430t20050430/
    HRI-RT-HK-BUILDING-CSDI-2666132430T20050430-A0
  200. Tower · 2666132456T20050430
    https://hsimc.tech/runtime-map/hk/buildings/csdi/2666132456t20050430/
    HRI-RT-HK-BUILDING-CSDI-2666132456T20050430-A0
  201. Temporary Structure · 2666139466T20251113
    https://hsimc.tech/runtime-map/hk/buildings/csdi/2666139466t20251113/
    HRI-RT-HK-BUILDING-CSDI-2666139466T20251113-A0
  202. Temporary Structure · 2666139603T20190613
    https://hsimc.tech/runtime-map/hk/buildings/csdi/2666139603t20190613/
    HRI-RT-HK-BUILDING-CSDI-2666139603T20190613-A0
  203. Temporary Structure · 2666139900T20251015
    https://hsimc.tech/runtime-map/hk/buildings/csdi/2666139900t20251015/
    HRI-RT-HK-BUILDING-CSDI-2666139900T20251015-A0
  204. Tower · 2666140800T20080728
    https://hsimc.tech/runtime-map/hk/buildings/csdi/2666140800t20080728/
    HRI-RT-HK-BUILDING-CSDI-2666140800T20080728-A0
  205. Tower · 2666140843T20251006
    https://hsimc.tech/runtime-map/hk/buildings/csdi/2666140843t20251006/
    HRI-RT-HK-BUILDING-CSDI-2666140843T20251006-A0
  206. Tower · 2666231630T20050430
    https://hsimc.tech/runtime-map/hk/buildings/csdi/2666231630t20050430/
    HRI-RT-HK-BUILDING-CSDI-2666231630T20050430-A0
  207. Tower · 2666231960T20100512
    https://hsimc.tech/runtime-map/hk/buildings/csdi/2666231960t20100512/
    HRI-RT-HK-BUILDING-CSDI-2666231960T20100512-A0
  208. Tower · 2666232355T20050430
    https://hsimc.tech/runtime-map/hk/buildings/csdi/2666232355t20050430/
    HRI-RT-HK-BUILDING-CSDI-2666232355T20050430-A0
  209. Tower · 2666232361T20050430
    https://hsimc.tech/runtime-map/hk/buildings/csdi/2666232361t20050430/
    HRI-RT-HK-BUILDING-CSDI-2666232361T20050430-A0
  210. Tower · 2666232385T20050430
    https://hsimc.tech/runtime-map/hk/buildings/csdi/2666232385t20050430/
    HRI-RT-HK-BUILDING-CSDI-2666232385T20050430-A0
  211. Temporary Structure · 2666239169T20080626
    https://hsimc.tech/runtime-map/hk/buildings/csdi/2666239169t20080626/
    HRI-RT-HK-BUILDING-CSDI-2666239169T20080626-A0
  212. Open-sided Structure · 2666240585T20230614
    https://hsimc.tech/runtime-map/hk/buildings/csdi/2666240585t20230614/
    HRI-RT-HK-BUILDING-CSDI-2666240585T20230614-A0
  213. Tower · 2666240773T20050430
    https://hsimc.tech/runtime-map/hk/buildings/csdi/2666240773t20050430/
    HRI-RT-HK-BUILDING-CSDI-2666240773T20050430-A0
  214. Tower · 2666240786T20050430
    https://hsimc.tech/runtime-map/hk/buildings/csdi/2666240786t20050430/
    HRI-RT-HK-BUILDING-CSDI-2666240786T20050430-A0
  215. Tower · 2666240866T20050430
    https://hsimc.tech/runtime-map/hk/buildings/csdi/2666240866t20050430/
    HRI-RT-HK-BUILDING-CSDI-2666240866T20050430-A0
  216. Temporary Structure · 2666333007T20080722
    https://hsimc.tech/runtime-map/hk/buildings/csdi/2666333007t20080722/
    HRI-RT-HK-BUILDING-CSDI-2666333007T20080722-A0
  217. Tower · 2666333724T20240812
    https://hsimc.tech/runtime-map/hk/buildings/csdi/2666333724t20240812/
    HRI-RT-HK-BUILDING-CSDI-2666333724T20240812-A0
  218. Tower · 2666340734T20050430
    https://hsimc.tech/runtime-map/hk/buildings/csdi/2666340734t20050430/
    HRI-RT-HK-BUILDING-CSDI-2666340734T20050430-A0
  219. Temporary Structure · 2666439279T20230515
    https://hsimc.tech/runtime-map/hk/buildings/csdi/2666439279t20230515/
    HRI-RT-HK-BUILDING-CSDI-2666439279T20230515-A0
  220. Tower · 2666532212T20110401
    https://hsimc.tech/runtime-map/hk/buildings/csdi/2666532212t20110401/
    HRI-RT-HK-BUILDING-CSDI-2666532212T20110401-A0
  221. Tower · 2666532388T20050430
    https://hsimc.tech/runtime-map/hk/buildings/csdi/2666532388t20050430/
    HRI-RT-HK-BUILDING-CSDI-2666532388T20050430-A0
  222. Tower · 2666532435T20050430
    https://hsimc.tech/runtime-map/hk/buildings/csdi/2666532435t20050430/
    HRI-RT-HK-BUILDING-CSDI-2666532435T20050430-A0
  223. Temporary Structure · 2666532542T20190225
    https://hsimc.tech/runtime-map/hk/buildings/csdi/2666532542t20190225/
    HRI-RT-HK-BUILDING-CSDI-2666532542T20190225-A0
  224. Shek Kong Barracks Block 82 / 石崗軍營82座
    https://hsimc.tech/runtime-map/hk/buildings/csdi/2666533259t20050430/
    HRI-RT-HK-BUILDING-CSDI-2666533259T20050430-A0
  225. Tower · 2666533407T20050430
    https://hsimc.tech/runtime-map/hk/buildings/csdi/2666533407t20050430/
    HRI-RT-HK-BUILDING-CSDI-2666533407T20050430-A0
  226. Tower · 2666533451T20161101
    https://hsimc.tech/runtime-map/hk/buildings/csdi/2666533451t20161101/
    HRI-RT-HK-BUILDING-CSDI-2666533451T20161101-A0
  227. Temporary Structure · 2666534161T20080815
    https://hsimc.tech/runtime-map/hk/buildings/csdi/2666534161t20080815/
    HRI-RT-HK-BUILDING-CSDI-2666534161T20080815-A0
  228. Temporary Structure · 2666539182T20080626
    https://hsimc.tech/runtime-map/hk/buildings/csdi/2666539182t20080626/
    HRI-RT-HK-BUILDING-CSDI-2666539182T20080626-A0
  229. Temporary Structure · 2666539671T20190729
    https://hsimc.tech/runtime-map/hk/buildings/csdi/2666539671t20190729/
    HRI-RT-HK-BUILDING-CSDI-2666539671T20190729-A0
  230. Temporary Structure · 2666540561T20181010
    https://hsimc.tech/runtime-map/hk/buildings/csdi/2666540561t20181010/
    HRI-RT-HK-BUILDING-CSDI-2666540561T20181010-A0
  231. Tower · 2666540770T20050430
    https://hsimc.tech/runtime-map/hk/buildings/csdi/2666540770t20050430/
    HRI-RT-HK-BUILDING-CSDI-2666540770T20050430-A0
  232. Tower · 2666540824T20050430
    https://hsimc.tech/runtime-map/hk/buildings/csdi/2666540824t20050430/
    HRI-RT-HK-BUILDING-CSDI-2666540824T20050430-A0
  233. Tower · 2666540839T20050430
    https://hsimc.tech/runtime-map/hk/buildings/csdi/2666540839t20050430/
    HRI-RT-HK-BUILDING-CSDI-2666540839T20050430-A0
  234. Villa Cote D'azur / 汀九南岸寄廬
    https://hsimc.tech/runtime-map/hk/buildings/csdi/2666625471t20050430/
    HRI-RT-HK-BUILDING-CSDI-2666625471T20050430-A0
  235. Tower · 2666640783T20050430
    https://hsimc.tech/runtime-map/hk/buildings/csdi/2666640783t20050430/
    HRI-RT-HK-BUILDING-CSDI-2666640783T20050430-A0
  236. Tower · 2666640800T20050430
    https://hsimc.tech/runtime-map/hk/buildings/csdi/2666640800t20050430/
    HRI-RT-HK-BUILDING-CSDI-2666640800T20050430-A0
  237. Open-sided Structure · 2666640858T20100423
    https://hsimc.tech/runtime-map/hk/buildings/csdi/2666640858t20100423/
    HRI-RT-HK-BUILDING-CSDI-2666640858T20100423-A0
  238. Tower · 2666640864T20050430
    https://hsimc.tech/runtime-map/hk/buildings/csdi/2666640864t20050430/
    HRI-RT-HK-BUILDING-CSDI-2666640864T20050430-A0
  239. Open-sided Structure · 2666731637T20080813
    https://hsimc.tech/runtime-map/hk/buildings/csdi/2666731637t20080813/
    HRI-RT-HK-BUILDING-CSDI-2666731637T20080813-A0
  240. Tower · 2666732026T20160819
    https://hsimc.tech/runtime-map/hk/buildings/csdi/2666732026t20160819/
    HRI-RT-HK-BUILDING-CSDI-2666732026T20160819-A0
  241. Tower · 2666732363T20050430
    https://hsimc.tech/runtime-map/hk/buildings/csdi/2666732363t20050430/
    HRI-RT-HK-BUILDING-CSDI-2666732363T20050430-A0
  242. Shek Kong Barracks Block 37A / 石崗軍營37A座
    https://hsimc.tech/runtime-map/hk/buildings/csdi/2666732962t20050430/
    HRI-RT-HK-BUILDING-CSDI-2666732962T20050430-A0
  243. Open-sided Structure · 2666732983T20190115
    https://hsimc.tech/runtime-map/hk/buildings/csdi/2666732983t20190115/
    HRI-RT-HK-BUILDING-CSDI-2666732983T20190115-A0
  244. Open-sided Structure · 2666739292T20260518
    https://hsimc.tech/runtime-map/hk/buildings/csdi/2666739292t20260518/
    HRI-RT-HK-BUILDING-CSDI-2666739292T20260518-A0
  245. Temporary Structure · 2666740620T20181010
    https://hsimc.tech/runtime-map/hk/buildings/csdi/2666740620t20181010/
    HRI-RT-HK-BUILDING-CSDI-2666740620T20181010-A0
  246. Tower · 2666832040T20161212
    https://hsimc.tech/runtime-map/hk/buildings/csdi/2666832040t20161212/
    HRI-RT-HK-BUILDING-CSDI-2666832040T20161212-A0
  247. Tower · 2666832126T20070510
    https://hsimc.tech/runtime-map/hk/buildings/csdi/2666832126t20070510/
    HRI-RT-HK-BUILDING-CSDI-2666832126T20070510-A0
  248. Tower · 2666832136T20050430
    https://hsimc.tech/runtime-map/hk/buildings/csdi/2666832136t20050430/
    HRI-RT-HK-BUILDING-CSDI-2666832136T20050430-A0
  249. Tower · 2666832347T20050430
    https://hsimc.tech/runtime-map/hk/buildings/csdi/2666832347t20050430/
    HRI-RT-HK-BUILDING-CSDI-2666832347T20050430-A0
  250. Tower · 2666832394T20050430
    https://hsimc.tech/runtime-map/hk/buildings/csdi/2666832394t20050430/
    HRI-RT-HK-BUILDING-CSDI-2666832394T20050430-A0
  251. Temporary Structure · 2666832418T20190225
    https://hsimc.tech/runtime-map/hk/buildings/csdi/2666832418t20190225/
    HRI-RT-HK-BUILDING-CSDI-2666832418T20190225-A0
  252. Tower · 2666832471T20050430
    https://hsimc.tech/runtime-map/hk/buildings/csdi/2666832471t20050430/
    HRI-RT-HK-BUILDING-CSDI-2666832471T20050430-A0
  253. Shek Kong Barracks Block 38 / 石崗軍營38座
    https://hsimc.tech/runtime-map/hk/buildings/csdi/2666833009t20050430/
    HRI-RT-HK-BUILDING-CSDI-2666833009T20050430-A0
  254. Tower · 2666837464T20050430
    https://hsimc.tech/runtime-map/hk/buildings/csdi/2666837464t20050430/
    HRI-RT-HK-BUILDING-CSDI-2666837464T20050430-A0
  255. Temporary Structure · 2666838902T20080626
    https://hsimc.tech/runtime-map/hk/buildings/csdi/2666838902t20080626/
    HRI-RT-HK-BUILDING-CSDI-2666838902T20080626-A0
  256. Temporary Structure · 2666838963T20201113
    https://hsimc.tech/runtime-map/hk/buildings/csdi/2666838963t20201113/
    HRI-RT-HK-BUILDING-CSDI-2666838963T20201113-A0
  257. Temporary Structure · 2666839925T20190118
    https://hsimc.tech/runtime-map/hk/buildings/csdi/2666839925t20190118/
    HRI-RT-HK-BUILDING-CSDI-2666839925T20190118-A0
  258. Tower · 2666840795T20050430
    https://hsimc.tech/runtime-map/hk/buildings/csdi/2666840795t20050430/
    HRI-RT-HK-BUILDING-CSDI-2666840795T20050430-A0
  259. Temporary Structure · 2666840867T20100423
    https://hsimc.tech/runtime-map/hk/buildings/csdi/2666840867t20100423/
    HRI-RT-HK-BUILDING-CSDI-2666840867T20100423-A0
  260. Tower · 2666840870T20050430
    https://hsimc.tech/runtime-map/hk/buildings/csdi/2666840870t20050430/
    HRI-RT-HK-BUILDING-CSDI-2666840870T20050430-A0
  261. Temporary Structure · 2666933013T20080722
    https://hsimc.tech/runtime-map/hk/buildings/csdi/2666933013t20080722/
    HRI-RT-HK-BUILDING-CSDI-2666933013T20080722-A0
  262. Open-sided Structure · 2666933286T20080723
    https://hsimc.tech/runtime-map/hk/buildings/csdi/2666933286t20080723/
    HRI-RT-HK-BUILDING-CSDI-2666933286T20080723-A0
  263. Tower · 2666933748T20240812
    https://hsimc.tech/runtime-map/hk/buildings/csdi/2666933748t20240812/
    HRI-RT-HK-BUILDING-CSDI-2666933748T20240812-A0
  264. Temporary Structure · 2666939486T20231030
    https://hsimc.tech/runtime-map/hk/buildings/csdi/2666939486t20231030/
    HRI-RT-HK-BUILDING-CSDI-2666939486T20231030-A0
  265. Tower · 2666940766T20050430
    https://hsimc.tech/runtime-map/hk/buildings/csdi/2666940766t20050430/
    HRI-RT-HK-BUILDING-CSDI-2666940766T20050430-A0
  266. Tower · 2666940780T20050430
    https://hsimc.tech/runtime-map/hk/buildings/csdi/2666940780t20050430/
    HRI-RT-HK-BUILDING-CSDI-2666940780T20050430-A0
  267. Tower · 2666940834T20050430
    https://hsimc.tech/runtime-map/hk/buildings/csdi/2666940834t20050430/
    HRI-RT-HK-BUILDING-CSDI-2666940834T20050430-A0
  268. Tower · 2666940863T20050430
    https://hsimc.tech/runtime-map/hk/buildings/csdi/2666940863t20050430/
    HRI-RT-HK-BUILDING-CSDI-2666940863T20050430-A0
  269. Tower · 2667031961T20100512
    https://hsimc.tech/runtime-map/hk/buildings/csdi/2667031961t20100512/
    HRI-RT-HK-BUILDING-CSDI-2667031961T20100512-A0
  270. Tower · 2667032146T20081230
    https://hsimc.tech/runtime-map/hk/buildings/csdi/2667032146t20081230/
    HRI-RT-HK-BUILDING-CSDI-2667032146T20081230-A0
  271. Tower · 2667032352T20050430
    https://hsimc.tech/runtime-map/hk/buildings/csdi/2667032352t20050430/
    HRI-RT-HK-BUILDING-CSDI-2667032352T20050430-A0
  272. Tower · 2667032368T20250320
    https://hsimc.tech/runtime-map/hk/buildings/csdi/2667032368t20250320/
    HRI-RT-HK-BUILDING-CSDI-2667032368T20250320-A0
  273. Tower · 2667032439T20050430
    https://hsimc.tech/runtime-map/hk/buildings/csdi/2667032439t20050430/
    HRI-RT-HK-BUILDING-CSDI-2667032439T20050430-A0
  274. Tower · 2667032523T20110805
    https://hsimc.tech/runtime-map/hk/buildings/csdi/2667032523t20110805/
    HRI-RT-HK-BUILDING-CSDI-2667032523T20110805-A0
  275. Tower · 2667032539T20050430
    https://hsimc.tech/runtime-map/hk/buildings/csdi/2667032539t20050430/
    HRI-RT-HK-BUILDING-CSDI-2667032539T20050430-A0
  276. Tower · 2667038919T20080626
    https://hsimc.tech/runtime-map/hk/buildings/csdi/2667038919t20080626/
    HRI-RT-HK-BUILDING-CSDI-2667038919T20080626-A0
  277. Open-sided Structure · 2667039303T20230515
    https://hsimc.tech/runtime-map/hk/buildings/csdi/2667039303t20230515/
    HRI-RT-HK-BUILDING-CSDI-2667039303T20230515-A0
  278. Tower · 2667131618T20050430
    https://hsimc.tech/runtime-map/hk/buildings/csdi/2667131618t20050430/
    HRI-RT-HK-BUILDING-CSDI-2667131618T20050430-A0
  279. Tower · 2667132355T20050430
    https://hsimc.tech/runtime-map/hk/buildings/csdi/2667132355t20050430/
    HRI-RT-HK-BUILDING-CSDI-2667132355T20050430-A0
  280. Tower · 2667132371T20170209
    https://hsimc.tech/runtime-map/hk/buildings/csdi/2667132371t20170209/
    HRI-RT-HK-BUILDING-CSDI-2667132371T20170209-A0
  281. Open-sided Structure · 2667132547T20190225
    https://hsimc.tech/runtime-map/hk/buildings/csdi/2667132547t20190225/
    HRI-RT-HK-BUILDING-CSDI-2667132547T20190225-A0
  282. Tower · 2667138933T20050430
    https://hsimc.tech/runtime-map/hk/buildings/csdi/2667138933t20050430/
    HRI-RT-HK-BUILDING-CSDI-2667138933T20050430-A0
  283. Tower · 2667140793T20050430
    https://hsimc.tech/runtime-map/hk/buildings/csdi/2667140793t20050430/
    HRI-RT-HK-BUILDING-CSDI-2667140793T20050430-A0
  284. Temporary Structure · 2667142977T20240405
    https://hsimc.tech/runtime-map/hk/buildings/csdi/2667142977t20240405/
    HRI-RT-HK-BUILDING-CSDI-2667142977T20240405-A0
  285. Temporary Structure · 2667143326T20201009
    https://hsimc.tech/runtime-map/hk/buildings/csdi/2667143326t20201009/
    HRI-RT-HK-BUILDING-CSDI-2667143326T20201009-A0
  286. Tower · 2667232402T20071001
    https://hsimc.tech/runtime-map/hk/buildings/csdi/2667232402t20071001/
    HRI-RT-HK-BUILDING-CSDI-2667232402T20071001-A0
  287. Shek Kong Barracks Block 39 / 石崗軍營39座
    https://hsimc.tech/runtime-map/hk/buildings/csdi/2667232989t20050430/
    HRI-RT-HK-BUILDING-CSDI-2667232989T20050430-A0
  288. Tower · 2667233711T20240812
    https://hsimc.tech/runtime-map/hk/buildings/csdi/2667233711t20240812/
    HRI-RT-HK-BUILDING-CSDI-2667233711T20240812-A0
  289. Tower · 2667239449T20050430
    https://hsimc.tech/runtime-map/hk/buildings/csdi/2667239449t20050430/
    HRI-RT-HK-BUILDING-CSDI-2667239449T20050430-A0
  290. Tower · 2667240804T20050430
    https://hsimc.tech/runtime-map/hk/buildings/csdi/2667240804t20050430/
    HRI-RT-HK-BUILDING-CSDI-2667240804T20050430-A0
  291. Tower · 2667240831T20050430
    https://hsimc.tech/runtime-map/hk/buildings/csdi/2667240831t20050430/
    HRI-RT-HK-BUILDING-CSDI-2667240831T20050430-A0
  292. Tower · 2667240862T20050430
    https://hsimc.tech/runtime-map/hk/buildings/csdi/2667240862t20050430/
    HRI-RT-HK-BUILDING-CSDI-2667240862T20050430-A0
  293. Tower · 2667323887T20050430
    https://hsimc.tech/runtime-map/hk/buildings/csdi/2667323887t20050430/
    HRI-RT-HK-BUILDING-CSDI-2667323887T20050430-A0
  294. Tower · 2667332080T20160819
    https://hsimc.tech/runtime-map/hk/buildings/csdi/2667332080t20160819/
    HRI-RT-HK-BUILDING-CSDI-2667332080T20160819-A0
  295. Tower · 2667332157T20050430
    https://hsimc.tech/runtime-map/hk/buildings/csdi/2667332157t20050430/
    HRI-RT-HK-BUILDING-CSDI-2667332157T20050430-A0
  296. Temporary Structure · 2667332288T20190115
    https://hsimc.tech/runtime-map/hk/buildings/csdi/2667332288t20190115/
    HRI-RT-HK-BUILDING-CSDI-2667332288T20190115-A0
  297. Tower · 2667332374T20210223
    https://hsimc.tech/runtime-map/hk/buildings/csdi/2667332374t20210223/
    HRI-RT-HK-BUILDING-CSDI-2667332374T20210223-A0
  298. Tower · 2667332422T20050430
    https://hsimc.tech/runtime-map/hk/buildings/csdi/2667332422t20050430/
    HRI-RT-HK-BUILDING-CSDI-2667332422T20050430-A0
  299. Open-sided Structure · 2667333313T20080723
    https://hsimc.tech/runtime-map/hk/buildings/csdi/2667333313t20080723/
    HRI-RT-HK-BUILDING-CSDI-2667333313T20080723-A0
  300. Tower · 2667338914T20050430
    https://hsimc.tech/runtime-map/hk/buildings/csdi/2667338914t20050430/
    HRI-RT-HK-BUILDING-CSDI-2667338914T20050430-A0
  301. Temporary Structure · 2667339047T20080624
    https://hsimc.tech/runtime-map/hk/buildings/csdi/2667339047t20080624/
    HRI-RT-HK-BUILDING-CSDI-2667339047T20080624-A0
  302. Tower · 2667340759T20041001
    https://hsimc.tech/runtime-map/hk/buildings/csdi/2667340759t20041001/
    HRI-RT-HK-BUILDING-CSDI-2667340759T20041001-A0
  303. Ling Mui Chong / 嶺梅莊
    https://hsimc.tech/runtime-map/hk/buildings/csdi/2667431450t20050430/
    HRI-RT-HK-BUILDING-CSDI-2667431450T20050430-A0
  304. Open-sided Structure · 2667431466T20080813
    https://hsimc.tech/runtime-map/hk/buildings/csdi/2667431466t20080813/
    HRI-RT-HK-BUILDING-CSDI-2667431466T20080813-A0
  305. Tower · 2667432425T20050430
    https://hsimc.tech/runtime-map/hk/buildings/csdi/2667432425t20050430/
    HRI-RT-HK-BUILDING-CSDI-2667432425T20050430-A0
  306. Temporary Structure · 2667439013T20080624
    https://hsimc.tech/runtime-map/hk/buildings/csdi/2667439013t20080624/
    HRI-RT-HK-BUILDING-CSDI-2667439013T20080624-A0
  307. Tower · 2667440745T20050430
    https://hsimc.tech/runtime-map/hk/buildings/csdi/2667440745t20050430/
    HRI-RT-HK-BUILDING-CSDI-2667440745T20050430-A0
  308. Tower · 2667440791T20050430
    https://hsimc.tech/runtime-map/hk/buildings/csdi/2667440791t20050430/
    HRI-RT-HK-BUILDING-CSDI-2667440791T20050430-A0
  309. Tower · 2667440860T20050430
    https://hsimc.tech/runtime-map/hk/buildings/csdi/2667440860t20050430/
    HRI-RT-HK-BUILDING-CSDI-2667440860T20050430-A0
  310. Tower · 2667531641T20050430
    https://hsimc.tech/runtime-map/hk/buildings/csdi/2667531641t20050430/
    HRI-RT-HK-BUILDING-CSDI-2667531641T20050430-A0
  311. Tower · 2667531821T20190115
    https://hsimc.tech/runtime-map/hk/buildings/csdi/2667531821t20190115/
    HRI-RT-HK-BUILDING-CSDI-2667531821T20190115-A0
  312. Tower · 2667532377T20210223
    https://hsimc.tech/runtime-map/hk/buildings/csdi/2667532377t20210223/
    HRI-RT-HK-BUILDING-CSDI-2667532377T20210223-A0
  313. Tower · 2667532382T20050430
    https://hsimc.tech/runtime-map/hk/buildings/csdi/2667532382t20050430/
    HRI-RT-HK-BUILDING-CSDI-2667532382T20050430-A0
  314. Tower · 2667532429T20050430
    https://hsimc.tech/runtime-map/hk/buildings/csdi/2667532429t20050430/
    HRI-RT-HK-BUILDING-CSDI-2667532429T20050430-A0
  315. Tower · 2667532487T20121029
    https://hsimc.tech/runtime-map/hk/buildings/csdi/2667532487t20121029/
    HRI-RT-HK-BUILDING-CSDI-2667532487T20121029-A0
  316. Temporary Structure · 2667539879T20240703
    https://hsimc.tech/runtime-map/hk/buildings/csdi/2667539879t20240703/
    HRI-RT-HK-BUILDING-CSDI-2667539879T20240703-A0
  317. Temporary Structure · 2667540078T20190730
    https://hsimc.tech/runtime-map/hk/buildings/csdi/2667540078t20190730/
    HRI-RT-HK-BUILDING-CSDI-2667540078T20190730-A0
  318. Temporary Structure · 2667540814T20090519
    https://hsimc.tech/runtime-map/hk/buildings/csdi/2667540814t20090519/
    HRI-RT-HK-BUILDING-CSDI-2667540814T20090519-A0
  319. Temporary Structure · 2667542050T20080620
    https://hsimc.tech/runtime-map/hk/buildings/csdi/2667542050t20080620/
    HRI-RT-HK-BUILDING-CSDI-2667542050T20080620-A0
  320. Open-sided Structure · 2667631477T20071030
    https://hsimc.tech/runtime-map/hk/buildings/csdi/2667631477t20071030/
    HRI-RT-HK-BUILDING-CSDI-2667631477T20071030-A0
  321. Tower · 2667632497T20121029
    https://hsimc.tech/runtime-map/hk/buildings/csdi/2667632497t20121029/
    HRI-RT-HK-BUILDING-CSDI-2667632497T20121029-A0
  322. Temporary Structure · 2667639427T20080626
    https://hsimc.tech/runtime-map/hk/buildings/csdi/2667639427t20080626/
    HRI-RT-HK-BUILDING-CSDI-2667639427T20080626-A0
  323. Tower · 2667640774T20050430
    https://hsimc.tech/runtime-map/hk/buildings/csdi/2667640774t20050430/
    HRI-RT-HK-BUILDING-CSDI-2667640774T20050430-A0
  324. Tower · 2667640789T20050430
    https://hsimc.tech/runtime-map/hk/buildings/csdi/2667640789t20050430/
    HRI-RT-HK-BUILDING-CSDI-2667640789T20050430-A0
  325. Tower · 2667732181T20110401
    https://hsimc.tech/runtime-map/hk/buildings/csdi/2667732181t20110401/
    HRI-RT-HK-BUILDING-CSDI-2667732181T20110401-A0
  326. Tower · 2667732348T20140819
    https://hsimc.tech/runtime-map/hk/buildings/csdi/2667732348t20140819/
    HRI-RT-HK-BUILDING-CSDI-2667732348T20140819-A0
  327. Tower · 2667732385T20230713
    https://hsimc.tech/runtime-map/hk/buildings/csdi/2667732385t20230713/
    HRI-RT-HK-BUILDING-CSDI-2667732385T20230713-A0
  328. Tower · 2667732432T20050430
    https://hsimc.tech/runtime-map/hk/buildings/csdi/2667732432t20050430/
    HRI-RT-HK-BUILDING-CSDI-2667732432T20050430-A0
  329. Open-sided Structure · 2667739012T20250807
    https://hsimc.tech/runtime-map/hk/buildings/csdi/2667739012t20250807/
    HRI-RT-HK-BUILDING-CSDI-2667739012T20250807-A0
  330. Temporary Structure · 2667739100T20080624
    https://hsimc.tech/runtime-map/hk/buildings/csdi/2667739100t20080624/
    HRI-RT-HK-BUILDING-CSDI-2667739100T20080624-A0
  331. Open-sided Structure · 2667739796T20230824
    https://hsimc.tech/runtime-map/hk/buildings/csdi/2667739796t20230824/
    HRI-RT-HK-BUILDING-CSDI-2667739796T20230824-A0
  332. Tower · 2667740858T20050430
    https://hsimc.tech/runtime-map/hk/buildings/csdi/2667740858t20050430/
    HRI-RT-HK-BUILDING-CSDI-2667740858T20050430-A0
  333. Temporary Structure · 2667740871T20190604
    https://hsimc.tech/runtime-map/hk/buildings/csdi/2667740871t20190604/
    HRI-RT-HK-BUILDING-CSDI-2667740871T20190604-A0
  334. Tower · 2667832191T20110401
    https://hsimc.tech/runtime-map/hk/buildings/csdi/2667832191t20110401/
    HRI-RT-HK-BUILDING-CSDI-2667832191T20110401-A0
  335. Tower · 2667832388T20050430
    https://hsimc.tech/runtime-map/hk/buildings/csdi/2667832388t20050430/
    HRI-RT-HK-BUILDING-CSDI-2667832388T20050430-A0
  336. Tower · 2667832410T20050430
    https://hsimc.tech/runtime-map/hk/buildings/csdi/2667832410t20050430/
    HRI-RT-HK-BUILDING-CSDI-2667832410T20050430-A0
  337. Tower · 2667832507T20120410
    https://hsimc.tech/runtime-map/hk/buildings/csdi/2667832507t20120410/
    HRI-RT-HK-BUILDING-CSDI-2667832507T20120410-A0
  338. Temporary Structure · 2667834125T20191017
    https://hsimc.tech/runtime-map/hk/buildings/csdi/2667834125t20191017/
    HRI-RT-HK-BUILDING-CSDI-2667834125T20191017-A0
  339. Temporary Structure · 2667839643T20190613
    https://hsimc.tech/runtime-map/hk/buildings/csdi/2667839643t20190613/
    HRI-RT-HK-BUILDING-CSDI-2667839643T20190613-A0
  340. Tower · 2667840714T20050430
    https://hsimc.tech/runtime-map/hk/buildings/csdi/2667840714t20050430/
    HRI-RT-HK-BUILDING-CSDI-2667840714T20050430-A0
  341. Temporary Structure · 2667840749T20080711
    https://hsimc.tech/runtime-map/hk/buildings/csdi/2667840749t20080711/
    HRI-RT-HK-BUILDING-CSDI-2667840749T20080711-A0
  342. Tower · 2667840802T20050430
    https://hsimc.tech/runtime-map/hk/buildings/csdi/2667840802t20050430/
    HRI-RT-HK-BUILDING-CSDI-2667840802T20050430-A0
  343. Open-sided Structure · 2667931831T20080808
    https://hsimc.tech/runtime-map/hk/buildings/csdi/2667931831t20080808/
    HRI-RT-HK-BUILDING-CSDI-2667931831T20080808-A0
  344. Tower · 2667931840T20050430
    https://hsimc.tech/runtime-map/hk/buildings/csdi/2667931840t20050430/
    HRI-RT-HK-BUILDING-CSDI-2667931840T20050430-A0
  345. Tower · 2667932436T20050430
    https://hsimc.tech/runtime-map/hk/buildings/csdi/2667932436t20050430/
    HRI-RT-HK-BUILDING-CSDI-2667932436T20050430-A0
  346. Tower · 2667940787T20050430
    https://hsimc.tech/runtime-map/hk/buildings/csdi/2667940787t20050430/
    HRI-RT-HK-BUILDING-CSDI-2667940787T20050430-A0
  347. Tower · 2667940824T20050430
    https://hsimc.tech/runtime-map/hk/buildings/csdi/2667940824t20050430/
    HRI-RT-HK-BUILDING-CSDI-2667940824T20050430-A0
  348. Tower · 2668031467T20050430
    https://hsimc.tech/runtime-map/hk/buildings/csdi/2668031467t20050430/
    HRI-RT-HK-BUILDING-CSDI-2668031467T20050430-A0
  349. Tower · 2668031815T20190115
    https://hsimc.tech/runtime-map/hk/buildings/csdi/2668031815t20190115/
    HRI-RT-HK-BUILDING-CSDI-2668031815T20190115-A0
  350. Tower · 2668032363T20050430
    https://hsimc.tech/runtime-map/hk/buildings/csdi/2668032363t20050430/
    HRI-RT-HK-BUILDING-CSDI-2668032363T20050430-A0
  351. Tower · 2668032416T20050430
    https://hsimc.tech/runtime-map/hk/buildings/csdi/2668032416t20050430/
    HRI-RT-HK-BUILDING-CSDI-2668032416T20050430-A0
  352. Tower · 2668038926T20050430
    https://hsimc.tech/runtime-map/hk/buildings/csdi/2668038926t20050430/
    HRI-RT-HK-BUILDING-CSDI-2668038926T20050430-A0
  353. Temporary Structure · 2668039121T20080624
    https://hsimc.tech/runtime-map/hk/buildings/csdi/2668039121t20080624/
    HRI-RT-HK-BUILDING-CSDI-2668039121T20080624-A0
  354. Open-sided Structure · 2668039466T20180808
    https://hsimc.tech/runtime-map/hk/buildings/csdi/2668039466t20180808/
    HRI-RT-HK-BUILDING-CSDI-2668039466T20180808-A0
  355. Temporary Structure · 2668039510T20080626
    https://hsimc.tech/runtime-map/hk/buildings/csdi/2668039510t20080626/
    HRI-RT-HK-BUILDING-CSDI-2668039510T20080626-A0
  356. Open-sided Structure · 2668039855T20230824
    https://hsimc.tech/runtime-map/hk/buildings/csdi/2668039855t20230824/
    HRI-RT-HK-BUILDING-CSDI-2668039855T20230824-A0
  357. Tower · 2668040772T20050430
    https://hsimc.tech/runtime-map/hk/buildings/csdi/2668040772t20050430/
    HRI-RT-HK-BUILDING-CSDI-2668040772T20050430-A0
  358. Tower · 2668040813T20050430
    https://hsimc.tech/runtime-map/hk/buildings/csdi/2668040813t20050430/
    HRI-RT-HK-BUILDING-CSDI-2668040813T20050430-A0
  359. Open-sided Structure · 2668042596T20221103
    https://hsimc.tech/runtime-map/hk/buildings/csdi/2668042596t20221103/
    HRI-RT-HK-BUILDING-CSDI-2668042596T20221103-A0
  360. Temporary Structure · 2668042618T20221027
    https://hsimc.tech/runtime-map/hk/buildings/csdi/2668042618t20221027/
    HRI-RT-HK-BUILDING-CSDI-2668042618T20221027-A0
  361. Open-sided Structure · 2668131640T20130410
    https://hsimc.tech/runtime-map/hk/buildings/csdi/2668131640t20130410/
    HRI-RT-HK-BUILDING-CSDI-2668131640T20130410-A0
  362. Temporary Structure · 2668132353T20140707
    https://hsimc.tech/runtime-map/hk/buildings/csdi/2668132353t20140707/
    HRI-RT-HK-BUILDING-CSDI-2668132353T20140707-A0
  363. Temporary Structure · 2668139313T20230515
    https://hsimc.tech/runtime-map/hk/buildings/csdi/2668139313t20230515/
    HRI-RT-HK-BUILDING-CSDI-2668139313T20230515-A0
  364. Tower · 2668140855T20050430
    https://hsimc.tech/runtime-map/hk/buildings/csdi/2668140855t20050430/
    HRI-RT-HK-BUILDING-CSDI-2668140855T20050430-A0
  365. Tower · 2668140869T20050430
    https://hsimc.tech/runtime-map/hk/buildings/csdi/2668140869t20050430/
    HRI-RT-HK-BUILDING-CSDI-2668140869T20050430-A0
  366. Tower · 2668232342T20050430
    https://hsimc.tech/runtime-map/hk/buildings/csdi/2668232342t20050430/
    HRI-RT-HK-BUILDING-CSDI-2668232342T20050430-A0
  367. Tower · 2668232366T20050430
    https://hsimc.tech/runtime-map/hk/buildings/csdi/2668232366t20050430/
    HRI-RT-HK-BUILDING-CSDI-2668232366T20050430-A0
  368. Tower · 2668233705T20240812
    https://hsimc.tech/runtime-map/hk/buildings/csdi/2668233705t20240812/
    HRI-RT-HK-BUILDING-CSDI-2668233705T20240812-A0
  369. Temporary Structure · 2668239013T20080624
    https://hsimc.tech/runtime-map/hk/buildings/csdi/2668239013t20080624/
    HRI-RT-HK-BUILDING-CSDI-2668239013T20080624-A0
  370. Open-sided Structure · 2668239016T20080626
    https://hsimc.tech/runtime-map/hk/buildings/csdi/2668239016t20080626/
    HRI-RT-HK-BUILDING-CSDI-2668239016T20080626-A0
  371. Open-sided Structure · 2668239016T20250807
    https://hsimc.tech/runtime-map/hk/buildings/csdi/2668239016t20250807/
    HRI-RT-HK-BUILDING-CSDI-2668239016T20250807-A0
  372. Temporary Structure · 2668239480T20080626
    https://hsimc.tech/runtime-map/hk/buildings/csdi/2668239480t20080626/
    HRI-RT-HK-BUILDING-CSDI-2668239480T20080626-A0
  373. Tower · 2668240880T20050430
    https://hsimc.tech/runtime-map/hk/buildings/csdi/2668240880t20050430/
    HRI-RT-HK-BUILDING-CSDI-2668240880T20050430-A0
  374. Tower · 2668331648T20050430
    https://hsimc.tech/runtime-map/hk/buildings/csdi/2668331648t20050430/
    HRI-RT-HK-BUILDING-CSDI-2668331648T20050430-A0
  375. Tower · 2668331812T20190115
    https://hsimc.tech/runtime-map/hk/buildings/csdi/2668331812t20190115/
    HRI-RT-HK-BUILDING-CSDI-2668331812T20190115-A0
  376. Tower · 2668332078T20160819
    https://hsimc.tech/runtime-map/hk/buildings/csdi/2668332078t20160819/
    HRI-RT-HK-BUILDING-CSDI-2668332078T20160819-A0
  377. Tower · 2668332372T20050430
    https://hsimc.tech/runtime-map/hk/buildings/csdi/2668332372t20050430/
    HRI-RT-HK-BUILDING-CSDI-2668332372T20050430-A0
  378. Temporary Structure · 2668339491T20251113
    https://hsimc.tech/runtime-map/hk/buildings/csdi/2668339491t20251113/
    HRI-RT-HK-BUILDING-CSDI-2668339491T20251113-A0
  379. Tower · 2668340770T20050430
    https://hsimc.tech/runtime-map/hk/buildings/csdi/2668340770t20050430/
    HRI-RT-HK-BUILDING-CSDI-2668340770T20050430-A0
  380. Tower · 2668340810T20050430
    https://hsimc.tech/runtime-map/hk/buildings/csdi/2668340810t20050430/
    HRI-RT-HK-BUILDING-CSDI-2668340810T20050430-A0
  381. Tower · 2668431836T20050430
    https://hsimc.tech/runtime-map/hk/buildings/csdi/2668431836t20050430/
    HRI-RT-HK-BUILDING-CSDI-2668431836T20050430-A0
  382. Temporary Structure · 2668431923T20241218
    https://hsimc.tech/runtime-map/hk/buildings/csdi/2668431923t20241218/
    HRI-RT-HK-BUILDING-CSDI-2668431923T20241218-A0
  383. Open-sided Structure · 2668432167T20241218
    https://hsimc.tech/runtime-map/hk/buildings/csdi/2668432167t20241218/
    HRI-RT-HK-BUILDING-CSDI-2668432167T20241218-A0
  384. Open-sided Structure · 2668432527T20100311
    https://hsimc.tech/runtime-map/hk/buildings/csdi/2668432527t20100311/
    HRI-RT-HK-BUILDING-CSDI-2668432527T20100311-A0
  385. Open-sided Structure · 2668439726T20230824
    https://hsimc.tech/runtime-map/hk/buildings/csdi/2668439726t20230824/
    HRI-RT-HK-BUILDING-CSDI-2668439726T20230824-A0
  386. Tower · 2668440736T20050430
    https://hsimc.tech/runtime-map/hk/buildings/csdi/2668440736t20050430/
    HRI-RT-HK-BUILDING-CSDI-2668440736T20050430-A0
  387. Temporary Structure · 2668531389T20240606
    https://hsimc.tech/runtime-map/hk/buildings/csdi/2668531389t20240606/
    HRI-RT-HK-BUILDING-CSDI-2668531389T20240606-A0
  388. Open-sided Structure · 2668531459T20130410
    https://hsimc.tech/runtime-map/hk/buildings/csdi/2668531459t20130410/
    HRI-RT-HK-BUILDING-CSDI-2668531459T20130410-A0
  389. Temporary Structure · 2668531475T20180530
    https://hsimc.tech/runtime-map/hk/buildings/csdi/2668531475t20180530/
    HRI-RT-HK-BUILDING-CSDI-2668531475T20180530-A0
  390. Tower · 2668532375T20050430
    https://hsimc.tech/runtime-map/hk/buildings/csdi/2668532375t20050430/
    HRI-RT-HK-BUILDING-CSDI-2668532375T20050430-A0
  391. Tower · 2668532445T20091109
    https://hsimc.tech/runtime-map/hk/buildings/csdi/2668532445t20091109/
    HRI-RT-HK-BUILDING-CSDI-2668532445T20091109-A0
  392. Tower · 2668532523T20050430
    https://hsimc.tech/runtime-map/hk/buildings/csdi/2668532523t20050430/
    HRI-RT-HK-BUILDING-CSDI-2668532523T20050430-A0
  393. Temporary Structure · 2668539443T20251121
    https://hsimc.tech/runtime-map/hk/buildings/csdi/2668539443t20251121/
    HRI-RT-HK-BUILDING-CSDI-2668539443T20251121-A0
  394. Open-sided Structure · 2668539772T20230824
    https://hsimc.tech/runtime-map/hk/buildings/csdi/2668539772t20230824/
    HRI-RT-HK-BUILDING-CSDI-2668539772T20230824-A0
  395. Tower · 2668540818T20130919
    https://hsimc.tech/runtime-map/hk/buildings/csdi/2668540818t20130919/
    HRI-RT-HK-BUILDING-CSDI-2668540818T20130919-A0
  396. Temporary Structure · 2668631826T20080807
    https://hsimc.tech/runtime-map/hk/buildings/csdi/2668631826t20080807/
    HRI-RT-HK-BUILDING-CSDI-2668631826T20080807-A0
  397. Tower · 2668632309T20220106
    https://hsimc.tech/runtime-map/hk/buildings/csdi/2668632309t20220106/
    HRI-RT-HK-BUILDING-CSDI-2668632309T20220106-A0
  398. Tower · 2668632350T20140707
    https://hsimc.tech/runtime-map/hk/buildings/csdi/2668632350t20140707/
    HRI-RT-HK-BUILDING-CSDI-2668632350T20140707-A0
  399. Tower · 2668632634T20050430
    https://hsimc.tech/runtime-map/hk/buildings/csdi/2668632634t20050430/
    HRI-RT-HK-BUILDING-CSDI-2668632634T20050430-A0
  400. Tower · 2668634149T20061013
    https://hsimc.tech/runtime-map/hk/buildings/csdi/2668634149t20061013/
    HRI-RT-HK-BUILDING-CSDI-2668634149T20061013-A0
  401. Open-sided Structure · 2668639816T20260126
    https://hsimc.tech/runtime-map/hk/buildings/csdi/2668639816t20260126/
    HRI-RT-HK-BUILDING-CSDI-2668639816T20260126-A0
  402. Tower · 2668640752T20050430
    https://hsimc.tech/runtime-map/hk/buildings/csdi/2668640752t20050430/
    HRI-RT-HK-BUILDING-CSDI-2668640752T20050430-A0
  403. Tower · 2668640766T20050430
    https://hsimc.tech/runtime-map/hk/buildings/csdi/2668640766t20050430/
    HRI-RT-HK-BUILDING-CSDI-2668640766T20050430-A0
  404. Tower · 2668640808T20050430
    https://hsimc.tech/runtime-map/hk/buildings/csdi/2668640808t20050430/
    HRI-RT-HK-BUILDING-CSDI-2668640808T20050430-A0
  405. Tower · 2668640853T20181219
    https://hsimc.tech/runtime-map/hk/buildings/csdi/2668640853t20181219/
    HRI-RT-HK-BUILDING-CSDI-2668640853T20181219-A0
  406. Tower · 2668640865T20050430
    https://hsimc.tech/runtime-map/hk/buildings/csdi/2668640865t20050430/
    HRI-RT-HK-BUILDING-CSDI-2668640865T20050430-A0
  407. Temporary Structure · 2668642720T20221027
    https://hsimc.tech/runtime-map/hk/buildings/csdi/2668642720t20221027/
    HRI-RT-HK-BUILDING-CSDI-2668642720T20221027-A0
  408. Tower · 2668723621T20050430
    https://hsimc.tech/runtime-map/hk/buildings/csdi/2668723621t20050430/
    HRI-RT-HK-BUILDING-CSDI-2668723621T20050430-A0
  409. Temporary Structure · 2668723680T20201104
    https://hsimc.tech/runtime-map/hk/buildings/csdi/2668723680t20201104/
    HRI-RT-HK-BUILDING-CSDI-2668723680T20201104-A0
  410. Tower · 2668731834T20050430
    https://hsimc.tech/runtime-map/hk/buildings/csdi/2668731834t20050430/
    HRI-RT-HK-BUILDING-CSDI-2668731834T20050430-A0
  411. Open-sided Structure · 2668732317T20220106
    https://hsimc.tech/runtime-map/hk/buildings/csdi/2668732317t20220106/
    HRI-RT-HK-BUILDING-CSDI-2668732317T20220106-A0
  412. Temporary Structure · 2668739053T20080624
    https://hsimc.tech/runtime-map/hk/buildings/csdi/2668739053t20080624/
    HRI-RT-HK-BUILDING-CSDI-2668739053T20080624-A0
  413. Open-sided Structure · 2668739420T20250811
    https://hsimc.tech/runtime-map/hk/buildings/csdi/2668739420t20250811/
    HRI-RT-HK-BUILDING-CSDI-2668739420T20250811-A0
  414. Tower · 2668740878T20050430
    https://hsimc.tech/runtime-map/hk/buildings/csdi/2668740878t20050430/
    HRI-RT-HK-BUILDING-CSDI-2668740878T20050430-A0
  415. Tsing Yi Administration Building / 青衣行政大樓
    https://hsimc.tech/runtime-map/hk/buildings/csdi/2668824012t20050430/
    HRI-RT-HK-BUILDING-CSDI-2668824012T20050430-A0
  416. Tower · 2668832427T20190225
    https://hsimc.tech/runtime-map/hk/buildings/csdi/2668832427t20190225/
    HRI-RT-HK-BUILDING-CSDI-2668832427T20190225-A0
  417. Temporary Structure · 2668838967T20080626
    https://hsimc.tech/runtime-map/hk/buildings/csdi/2668838967t20080626/
    HRI-RT-HK-BUILDING-CSDI-2668838967T20080626-A0
  418. Temporary Structure · 2668840072T20070212
    https://hsimc.tech/runtime-map/hk/buildings/csdi/2668840072t20070212/
    HRI-RT-HK-BUILDING-CSDI-2668840072T20070212-A0
  419. Temporary Structure · 2668840551T20100414
    https://hsimc.tech/runtime-map/hk/buildings/csdi/2668840551t20100414/
    HRI-RT-HK-BUILDING-CSDI-2668840551T20100414-A0
  420. Tower · 2668840733T20050430
    https://hsimc.tech/runtime-map/hk/buildings/csdi/2668840733t20050430/
    HRI-RT-HK-BUILDING-CSDI-2668840733T20050430-A0
  421. Tower · 2668840805T20050430
    https://hsimc.tech/runtime-map/hk/buildings/csdi/2668840805t20050430/
    HRI-RT-HK-BUILDING-CSDI-2668840805T20050430-A0
  422. Tower · 2668931462T20050430
    https://hsimc.tech/runtime-map/hk/buildings/csdi/2668931462t20050430/
    HRI-RT-HK-BUILDING-CSDI-2668931462T20050430-A0
  423. Open-sided Structure · 2668932379T20181206
    https://hsimc.tech/runtime-map/hk/buildings/csdi/2668932379t20181206/
    HRI-RT-HK-BUILDING-CSDI-2668932379T20181206-A0
  424. Shek Kong Barracks Block 40 / 石崗軍營40座
    https://hsimc.tech/runtime-map/hk/buildings/csdi/2668932987t20050430/
    HRI-RT-HK-BUILDING-CSDI-2668932987T20050430-A0
  425. Open-sided Structure · 2668933500T20161101
    https://hsimc.tech/runtime-map/hk/buildings/csdi/2668933500t20161101/
    HRI-RT-HK-BUILDING-CSDI-2668933500T20161101-A0
  426. Temporary Structure · 2668939101T20090625
    https://hsimc.tech/runtime-map/hk/buildings/csdi/2668939101t20090625/
    HRI-RT-HK-BUILDING-CSDI-2668939101T20090625-A0
  427. Open-sided Structure · 2669031824T20080808
    https://hsimc.tech/runtime-map/hk/buildings/csdi/2669031824t20080808/
    HRI-RT-HK-BUILDING-CSDI-2669031824T20080808-A0
  428. Tower · 2669031868T20081027
    https://hsimc.tech/runtime-map/hk/buildings/csdi/2669031868t20081027/
    HRI-RT-HK-BUILDING-CSDI-2669031868T20081027-A0
  429. Tower · 2669032129T20051205
    https://hsimc.tech/runtime-map/hk/buildings/csdi/2669032129t20051205/
    HRI-RT-HK-BUILDING-CSDI-2669032129T20051205-A0
  430. Tower · 2669032295T20050430
    https://hsimc.tech/runtime-map/hk/buildings/csdi/2669032295t20050430/
    HRI-RT-HK-BUILDING-CSDI-2669032295T20050430-A0
  431. Temporary Structure · 2669032337T20080807
    https://hsimc.tech/runtime-map/hk/buildings/csdi/2669032337t20080807/
    HRI-RT-HK-BUILDING-CSDI-2669032337T20080807-A0
  432. Tower · 2669032407T20050430
    https://hsimc.tech/runtime-map/hk/buildings/csdi/2669032407t20050430/
    HRI-RT-HK-BUILDING-CSDI-2669032407T20050430-A0
  433. Shek Kong Barracks Block 40A / 石崗軍營40A座
    https://hsimc.tech/runtime-map/hk/buildings/csdi/2669032997t20050430/
    HRI-RT-HK-BUILDING-CSDI-2669032997T20050430-A0
  434. Temporary Structure · 2669039477T20251113
    https://hsimc.tech/runtime-map/hk/buildings/csdi/2669039477t20251113/
    HRI-RT-HK-BUILDING-CSDI-2669039477T20251113-A0
  435. Tower · 2669040762T20050430
    https://hsimc.tech/runtime-map/hk/buildings/csdi/2669040762t20050430/
    HRI-RT-HK-BUILDING-CSDI-2669040762T20050430-A0
  436. Tower · 2669131831T20050430
    https://hsimc.tech/runtime-map/hk/buildings/csdi/2669131831t20050430/
    HRI-RT-HK-BUILDING-CSDI-2669131831T20050430-A0
  437. Tower · 2669132137T20050706
    https://hsimc.tech/runtime-map/hk/buildings/csdi/2669132137t20050706/
    HRI-RT-HK-BUILDING-CSDI-2669132137T20050706-A0
  438. Tower · 2669132150T20050430
    https://hsimc.tech/runtime-map/hk/buildings/csdi/2669132150t20050430/
    HRI-RT-HK-BUILDING-CSDI-2669132150T20050430-A0
  439. Tower · 2669132435T20050430
    https://hsimc.tech/runtime-map/hk/buildings/csdi/2669132435t20050430/
    HRI-RT-HK-BUILDING-CSDI-2669132435T20050430-A0
  440. Temporary Structure · 2669132520T20080724
    https://hsimc.tech/runtime-map/hk/buildings/csdi/2669132520t20080724/
    HRI-RT-HK-BUILDING-CSDI-2669132520T20080724-A0
  441. Open-sided Structure · 2669139425T20250811
    https://hsimc.tech/runtime-map/hk/buildings/csdi/2669139425t20250811/
    HRI-RT-HK-BUILDING-CSDI-2669139425T20250811-A0
  442. Tower · 2669140730T20050430
    https://hsimc.tech/runtime-map/hk/buildings/csdi/2669140730t20050430/
    HRI-RT-HK-BUILDING-CSDI-2669140730T20050430-A0
  443. Tower · 2669140875T20050430
    https://hsimc.tech/runtime-map/hk/buildings/csdi/2669140875t20050430/
    HRI-RT-HK-BUILDING-CSDI-2669140875T20050430-A0
  444. Tower · 2669225456T20250925
    https://hsimc.tech/runtime-map/hk/buildings/csdi/2669225456t20250925/
    HRI-RT-HK-BUILDING-CSDI-2669225456T20250925-A0
  445. Open-sided Structure · 2669231483T20080813
    https://hsimc.tech/runtime-map/hk/buildings/csdi/2669231483t20080813/
    HRI-RT-HK-BUILDING-CSDI-2669231483T20080813-A0
  446. Shui Tsan Tin Tsuen Public Toilet / 水盞田村公廁
    https://hsimc.tech/runtime-map/hk/buildings/csdi/2669231779t20050430/
    HRI-RT-HK-BUILDING-CSDI-2669231779T20050430-A0
  447. Tower · 2669232360T20050430
    https://hsimc.tech/runtime-map/hk/buildings/csdi/2669232360t20050430/
    HRI-RT-HK-BUILDING-CSDI-2669232360T20050430-A0
  448. Tower · 2669232409T20050430
    https://hsimc.tech/runtime-map/hk/buildings/csdi/2669232409t20050430/
    HRI-RT-HK-BUILDING-CSDI-2669232409T20050430-A0
  449. Tower · 2669234146T20050430
    https://hsimc.tech/runtime-map/hk/buildings/csdi/2669234146t20050430/
    HRI-RT-HK-BUILDING-CSDI-2669234146T20050430-A0
  450. Open-sided Structure · 2669239041T20080626
    https://hsimc.tech/runtime-map/hk/buildings/csdi/2669239041t20080626/
    HRI-RT-HK-BUILDING-CSDI-2669239041T20080626-A0
  451. Temporary Structure · 2669240577T20181010
    https://hsimc.tech/runtime-map/hk/buildings/csdi/2669240577t20181010/
    HRI-RT-HK-BUILDING-CSDI-2669240577T20181010-A0
  452. Tower · 2669332436T20050430
    https://hsimc.tech/runtime-map/hk/buildings/csdi/2669332436t20050430/
    HRI-RT-HK-BUILDING-CSDI-2669332436T20050430-A0
  453. Tower · 2669332464T20050430
    https://hsimc.tech/runtime-map/hk/buildings/csdi/2669332464t20050430/
    HRI-RT-HK-BUILDING-CSDI-2669332464T20050430-A0
  454. Tower · 2669333404T20050430
    https://hsimc.tech/runtime-map/hk/buildings/csdi/2669333404t20050430/
    HRI-RT-HK-BUILDING-CSDI-2669333404T20050430-A0
  455. Temporary Structure · 2669339416T20080626
    https://hsimc.tech/runtime-map/hk/buildings/csdi/2669339416t20080626/
    HRI-RT-HK-BUILDING-CSDI-2669339416T20080626-A0
  456. Tower · 2669340740T20050430
    https://hsimc.tech/runtime-map/hk/buildings/csdi/2669340740t20050430/
    HRI-RT-HK-BUILDING-CSDI-2669340740T20050430-A0
  457. Tower · 2669340760T20050430
    https://hsimc.tech/runtime-map/hk/buildings/csdi/2669340760t20050430/
    HRI-RT-HK-BUILDING-CSDI-2669340760T20050430-A0
  458. Tower · 2669340812T20050430
    https://hsimc.tech/runtime-map/hk/buildings/csdi/2669340812t20050430/
    HRI-RT-HK-BUILDING-CSDI-2669340812T20050430-A0
  459. Open-sided Structure · 2669423577T20201103
    https://hsimc.tech/runtime-map/hk/buildings/csdi/2669423577t20201103/
    HRI-RT-HK-BUILDING-CSDI-2669423577T20201103-A0
  460. Tower · 2669431488T20050430
    https://hsimc.tech/runtime-map/hk/buildings/csdi/2669431488t20050430/
    HRI-RT-HK-BUILDING-CSDI-2669431488T20050430-A0
  461. Tower · 2669431654T20050430
    https://hsimc.tech/runtime-map/hk/buildings/csdi/2669431654t20050430/
    HRI-RT-HK-BUILDING-CSDI-2669431654T20050430-A0
  462. Tower · 2669432368T20050430
    https://hsimc.tech/runtime-map/hk/buildings/csdi/2669432368t20050430/
    HRI-RT-HK-BUILDING-CSDI-2669432368T20050430-A0
  463. Tower · 2669433566T20050430
    https://hsimc.tech/runtime-map/hk/buildings/csdi/2669433566t20050430/
    HRI-RT-HK-BUILDING-CSDI-2669433566T20050430-A0
  464. Temporary Structure · 2669433819T20191016
    https://hsimc.tech/runtime-map/hk/buildings/csdi/2669433819t20191016/
    HRI-RT-HK-BUILDING-CSDI-2669433819T20191016-A0
  465. 積善書室
    https://hsimc.tech/runtime-map/hk/buildings/csdi/2669440860t20050430/
    HRI-RT-HK-BUILDING-CSDI-2669440860T20050430-A0
  466. Temporary Structure · 2669442584T20221027
    https://hsimc.tech/runtime-map/hk/buildings/csdi/2669442584t20221027/
    HRI-RT-HK-BUILDING-CSDI-2669442584T20221027-A0
  467. Open-sided Structure · 2669532015T20181208
    https://hsimc.tech/runtime-map/hk/buildings/csdi/2669532015t20181208/
    HRI-RT-HK-BUILDING-CSDI-2669532015T20181208-A0
  468. Tower · 2669532055T20160127
    https://hsimc.tech/runtime-map/hk/buildings/csdi/2669532055t20160127/
    HRI-RT-HK-BUILDING-CSDI-2669532055T20160127-A0
  469. Tower · 2669532441T20050430
    https://hsimc.tech/runtime-map/hk/buildings/csdi/2669532441t20050430/
    HRI-RT-HK-BUILDING-CSDI-2669532441T20050430-A0
  470. Tower · 2669532493T20050430
    https://hsimc.tech/runtime-map/hk/buildings/csdi/2669532493t20050430/
    HRI-RT-HK-BUILDING-CSDI-2669532493T20050430-A0
  471. Temporary Structure · 2669539437T20251113
    https://hsimc.tech/runtime-map/hk/buildings/csdi/2669539437t20251113/
    HRI-RT-HK-BUILDING-CSDI-2669539437T20251113-A0
  472. Tower · 2669540727T20050430
    https://hsimc.tech/runtime-map/hk/buildings/csdi/2669540727t20050430/
    HRI-RT-HK-BUILDING-CSDI-2669540727T20050430-A0
  473. Tower · 2669540801T20050430
    https://hsimc.tech/runtime-map/hk/buildings/csdi/2669540801t20050430/
    HRI-RT-HK-BUILDING-CSDI-2669540801T20050430-A0
  474. Open-sided Structure · 2669631678T20180531
    https://hsimc.tech/runtime-map/hk/buildings/csdi/2669631678t20180531/
    HRI-RT-HK-BUILDING-CSDI-2669631678T20180531-A0
  475. Temporary Structure · 2669631926T20080807
    https://hsimc.tech/runtime-map/hk/buildings/csdi/2669631926t20080807/
    HRI-RT-HK-BUILDING-CSDI-2669631926T20080807-A0
  476. Open-sided Structure · 2669632297T20080808
    https://hsimc.tech/runtime-map/hk/buildings/csdi/2669632297t20080808/
    HRI-RT-HK-BUILDING-CSDI-2669632297T20080808-A0
  477. Tower · 2669632413T20050430
    https://hsimc.tech/runtime-map/hk/buildings/csdi/2669632413t20050430/
    HRI-RT-HK-BUILDING-CSDI-2669632413T20050430-A0
  478. Temporary Structure · 2669633995T20090930
    https://hsimc.tech/runtime-map/hk/buildings/csdi/2669633995t20090930/
    HRI-RT-HK-BUILDING-CSDI-2669633995T20090930-A0
  479. Temporary Structure · 2669639016T20080624
    https://hsimc.tech/runtime-map/hk/buildings/csdi/2669639016t20080624/
    HRI-RT-HK-BUILDING-CSDI-2669639016T20080624-A0
  480. Open-sided Structure · 2669639019T20080626
    https://hsimc.tech/runtime-map/hk/buildings/csdi/2669639019t20080626/
    HRI-RT-HK-BUILDING-CSDI-2669639019T20080626-A0
  481. Tower · 2669640848T20050430
    https://hsimc.tech/runtime-map/hk/buildings/csdi/2669640848t20050430/
    HRI-RT-HK-BUILDING-CSDI-2669640848T20050430-A0
  482. Open-sided Structure · 2669731478T20110201
    https://hsimc.tech/runtime-map/hk/buildings/csdi/2669731478t20110201/
    HRI-RT-HK-BUILDING-CSDI-2669731478T20110201-A0
  483. Tower · 2669731486T20050430
    https://hsimc.tech/runtime-map/hk/buildings/csdi/2669731486t20050430/
    HRI-RT-HK-BUILDING-CSDI-2669731486T20050430-A0
  484. Tower · 2669732078T20050430
    https://hsimc.tech/runtime-map/hk/buildings/csdi/2669732078t20050430/
    HRI-RT-HK-BUILDING-CSDI-2669732078T20050430-A0
  485. Temporary Structure · 2669732134T20091229
    https://hsimc.tech/runtime-map/hk/buildings/csdi/2669732134t20091229/
    HRI-RT-HK-BUILDING-CSDI-2669732134T20091229-A0
  486. Open-sided Structure · 2669733860T20191022
    https://hsimc.tech/runtime-map/hk/buildings/csdi/2669733860t20191022/
    HRI-RT-HK-BUILDING-CSDI-2669733860T20191022-A0
  487. Temporary Structure · 2669739703T20190612
    https://hsimc.tech/runtime-map/hk/buildings/csdi/2669739703t20190612/
    HRI-RT-HK-BUILDING-CSDI-2669739703T20190612-A0
  488. Temporary Structure · 2669740067T20190612
    https://hsimc.tech/runtime-map/hk/buildings/csdi/2669740067t20190612/
    HRI-RT-HK-BUILDING-CSDI-2669740067T20190612-A0
  489. Tower · 2669740871T20190808
    https://hsimc.tech/runtime-map/hk/buildings/csdi/2669740871t20190808/
    HRI-RT-HK-BUILDING-CSDI-2669740871T20190808-A0
  490. Temporary Structure · 2669743271T20240405
    https://hsimc.tech/runtime-map/hk/buildings/csdi/2669743271t20240405/
    HRI-RT-HK-BUILDING-CSDI-2669743271T20240405-A0
  491. Tower · 2669832445T20190222
    https://hsimc.tech/runtime-map/hk/buildings/csdi/2669832445t20190222/
    HRI-RT-HK-BUILDING-CSDI-2669832445T20190222-A0
  492. Tower · 2669832508T20050430
    https://hsimc.tech/runtime-map/hk/buildings/csdi/2669832508t20050430/
    HRI-RT-HK-BUILDING-CSDI-2669832508T20050430-A0
  493. Shek Kong Barracks Block 40B / 石崗軍營40B座
    https://hsimc.tech/runtime-map/hk/buildings/csdi/2669832978t20050430/
    HRI-RT-HK-BUILDING-CSDI-2669832978T20050430-A0
  494. Temporary Structure · 2669833825T20191016
    https://hsimc.tech/runtime-map/hk/buildings/csdi/2669833825t20191016/
    HRI-RT-HK-BUILDING-CSDI-2669833825T20191016-A0
  495. Open-sided Structure · 2669833993T20130919
    https://hsimc.tech/runtime-map/hk/buildings/csdi/2669833993t20130919/
    HRI-RT-HK-BUILDING-CSDI-2669833993T20130919-A0
  496. Temporary Structure · 2669839134T20250403
    https://hsimc.tech/runtime-map/hk/buildings/csdi/2669839134t20250403/
    HRI-RT-HK-BUILDING-CSDI-2669839134T20250403-A0
  497. Tower · 2669840724T20050430
    https://hsimc.tech/runtime-map/hk/buildings/csdi/2669840724t20050430/
    HRI-RT-HK-BUILDING-CSDI-2669840724T20050430-A0
  498. Tower · 2669840740T20050430
    https://hsimc.tech/runtime-map/hk/buildings/csdi/2669840740t20050430/
    HRI-RT-HK-BUILDING-CSDI-2669840740T20050430-A0
  499. Tower · 2669840847T20050430
    https://hsimc.tech/runtime-map/hk/buildings/csdi/2669840847t20050430/
    HRI-RT-HK-BUILDING-CSDI-2669840847T20050430-A0
  500. Podium · 2669925466P20250925
    https://hsimc.tech/runtime-map/hk/buildings/csdi/2669925466p20250925/
    HRI-RT-HK-BUILDING-CSDI-2669925466P20250925-A0
← PreviousFirstLastNext →